Observation data for Junction on 07/11/2018      Previous  Date       Current Mesonet Observations  Soil Data  Daily Summary Page  Observations in Plain Language
KJU1 110501Z 17005KT 27/18 A3011 RMK A01 T02660177  RH  058%=      5-min Rain = 0
KJU1 110502Z 17008KT 27/18 A3011 RMK A01 T02650176  RH  058%=      5-min Rain = 0
KJU1 110503Z 17006KT 27/18 A3011 RMK A01 T02650176  RH  058%=      5-min Rain = 0
KJU1 110504Z 17006KT 27/18 A3011 RMK A01 T02650176  RH  058%=      5-min Rain = 0
KJU1 110505Z 17007KT 27/18 A3011 RMK A01 T02650176  RH  058%=      5-min Rain = 0
KJU1 110506Z 17007KT 27/18 A3011 RMK A01 T02650176  RH  058%=      5-min Rain = 0
KJU1 110507Z 17006KT 27/18 A3011 RMK A01 T02650176  RH  058%=      5-min Rain = 0
KJU1 110508Z 18007KT 27/18 A3011 RMK A01 T02650176  RH  058%=      5-min Rain = 0
KJU1 110509Z 17008KT 27/18 A3011 RMK A01 T02650176  RH  058%=      5-min Rain = 0
KJU1 110510Z 17007KT 27/18 A3011 RMK A01 T02650176  RH  058%=      5-min Rain = 0
KJU1 110511Z 17007KT 27/18 A3011 RMK A01 T02650176  RH  058%=      5-min Rain = 0
KJU1 110512Z 17006KT 27/18 A3011 RMK A01 T02650176  RH  058%=      5-min Rain = 0
KJU1 110513Z 17007KT 27/18 A3011 RMK A01 T02650177  RH  058%=      5-min Rain = 0
KJU1 110514Z 17008KT 27/18 A3011 RMK A01 T02650176  RH  058%=      5-min Rain = 0
KJU1 110515Z 17007KT 27/18 A3011 RMK A01 T02650177  RH  058%=      5-min Rain = 0
KJU1 110516Z 17009KT 26/18 A3011 RMK A01 T02640176  RH  058%=      5-min Rain = 0
KJU1 110517Z 17008KT 27/18 A3011 RMK A01 T02650176  RH  058%=      5-min Rain = 0
KJU1 110518Z 17007KT 27/18 A3011 RMK A01 T02650176  RH  058%=      5-min Rain = 0
KJU1 110519Z 17008KT 27/18 A301 RMK A01 T02650176  RH  058%=      5-min Rain = 0
KJU1 110520Z 17009KT 26/18 A301 RMK A01 T02640176  RH  058%=      5-min Rain = 0
KJU1 110521Z 17008KT 26/18 A301 RMK A01 T02640176  RH  058%=      5-min Rain = 0
KJU1 110522Z 17008KT 27/18 A301 RMK A01 T02650176  RH  058%=      5-min Rain = 0
KJU1 110523Z 17009KT 27/18 A301 RMK A01 T02650176  RH  058%=      5-min Rain = 0
KJU1 110524Z 17008KT 27/18 A301 RMK A01 T02650176  RH  058%=      5-min Rain = 0
KJU1 110525Z 17008KT 27/18 A301 RMK A01 T02650177  RH  058%=      5-min Rain = 0
KJU1 110526Z 16009KT 27/18 A301 RMK A01 T02650177  RH  058%=      5-min Rain = 0
KJU1 110527Z 17010KT 27/18 A301 RMK A01 T02650176  RH  058%=      5-min Rain = 0
KJU1 110528Z 17009KT 27/18 A301 RMK A01 T02650177  RH  058%=      5-min Rain = 0
KJU1 110529Z 17008KT 27/18 A301 RMK A01 T02660177  RH  058%=      5-min Rain = 0
KJU1 110530Z 17009KT 27/18 A301 RMK A01 T02660177  RH  058%=      5-min Rain = 0
KJU1 110531Z 18007KT 27/18 A301 RMK A01 T02660177  RH  058%=      5-min Rain = 0
KJU1 110532Z 17008KT 27/18 A301 RMK A01 T02650177  RH  058%=      5-min Rain = 0
KJU1 110533Z 17008KT 27/18 A301 RMK A01 T02650177  RH  059%=      5-min Rain = 0
KJU1 110534Z 17009KT 27/18 A301 RMK A01 T02650177  RH  059%=      5-min Rain = 0
KJU1 110535Z 16008KT 27/18 A301 RMK A01 T02650177  RH  059%=      5-min Rain = 0
KJU1 110536Z 16008KT 27/18 A301 RMK A01 T02650178  RH  059%=      5-min Rain = 0
KJU1 110537Z 16007KT 27/18 A301 RMK A01 T02650178  RH  059%=      5-min Rain = 0
KJU1 110538Z 17008KT 27/18 A301 RMK A01 T02650178  RH  059%=      5-min Rain = 0
KJU1 110539Z 16009KT 26/18 A301 RMK A01 T02640178  RH  059%=      5-min Rain = 0
KJU1 110540Z 17010KT 26/18 A301 RMK A01 T02640178  RH  059%=      5-min Rain = 0
KJU1 110541Z 17009KT 27/18 A301 RMK A01 T02650178  RH  059%=      5-min Rain = 0
KJU1 110542Z 17010KT 27/18 A301 RMK A01 T02650178  RH  059%=      5-min Rain = 0
KJU1 110543Z 16010KT 27/18 A301 RMK A01 T02650179  RH  059%=      5-min Rain = 0
KJU1 110544Z 17010KT 27/18 A301 RMK A01 T02650179  RH  059%=      5-min Rain = 0
KJU1 110545Z 17009KT 27/18 A301 RMK A01 T02650179  RH  059%=      5-min Rain = 0
KJU1 110546Z 17010KT 27/18 A301 RMK A01 T02650180  RH  059%=      5-min Rain = 0
KJU1 110547Z 17008KT 27/18 A301 RMK A01 T02650180  RH  060%=      5-min Rain = 0
KJU1 110548Z 17009KT 26/18 A301 RMK A01 T02640180  RH  060%=      5-min Rain = 0
KJU1 110549Z 17008KT 26/18 A301 RMK A01 T02640180  RH  060%=      5-min Rain = 0
KJU1 110550Z 16009G14KT 26/18 A3009 RMK A01 T02640180  RH  060%=      5-min Rain = 0
KJU1 110551Z 16009G14KT 26/18 A301 RMK A01 T02640181  RH  060%=      5-min Rain = 0
KJU1 110552Z 16009KT 26/18 A301 RMK A01 T02640181  RH  060%=      5-min Rain = 0
KJU1 110553Z 16007KT 26/18 A301 RMK A01 T02640181  RH  061%=      5-min Rain = 0
KJU1 110554Z 16009KT 26/18 A301 RMK A01 T02630181  RH  061%=      5-min Rain = 0
KJU1 110555Z 15007KT 26/18 A301 RMK A01 T02630182  RH  061%=      5-min Rain = 0
KJU1 110556Z 16007KT 26/18 A301 RMK A01 T02630182  RH  061%=      5-min Rain = 0
KJU1 110557Z 16008KT 26/18 A301 RMK A01 T02620182  RH  061%=      5-min Rain = 0
KJU1 110558Z 16008KT 26/18 A301 RMK A01 T02620182  RH  061%=      5-min Rain = 0
KJU1 110559Z 16008KT 26/18 A301 RMK A01 T02620182  RH  061%=      5-min Rain = 0
KJU1 110600Z 17007KT 26/18 A301 RMK A01 T02630183  RH  061%=      5-min Rain = 0
KJU1 110601Z 16007KT 26/18 A301 RMK A01 T02630183  RH  062%=      5-min Rain = 0
KJU1 110602Z 16008KT 26/18 A301 RMK A01 T02620183  RH  062%=      5-min Rain = 0
KJU1 110603Z 16008KT 26/18 A301 RMK A01 T02620183  RH  062%=      5-min Rain = 0
KJU1 110604Z 16006KT 26/18 A301 RMK A01 T02620184  RH  062%=      5-min Rain = 0
KJU1 110605Z 17007KT 26/18 A301 RMK A01 T02620184  RH  062%=      5-min Rain = 0
KJU1 110606Z 17008KT 26/18 A301 RMK A01 T02610184  RH  062%=      5-min Rain = 0
KJU1 110607Z 17009KT 26/18 A301 RMK A01 T02610184  RH  062%=      5-min Rain = 0
KJU1 110608Z 17009KT 26/19 A301 RMK A01 T02620185  RH  063%=      5-min Rain = 0
KJU1 110609Z 17008KT 26/19 A301 RMK A01 T02610185  RH  063%=      5-min Rain = 0
KJU1 110610Z 17009KT 26/19 A301 RMK A01 T02610185  RH  063%=      5-min Rain = 0
KJU1 110611Z 17010KT 26/19 A301 RMK A01 T02610185  RH  063%=      5-min Rain = 0
KJU1 110612Z 17009KT 26/19 A301 RMK A01 T02620186  RH  063%=      5-min Rain = 0
KJU1 110613Z 17009KT 26/19 A301 RMK A01 T02620186  RH  063%=      5-min Rain = 0
KJU1 110614Z 17007KT 26/19 A301 RMK A01 T02610187  RH  063%=      5-min Rain = 0
KJU1 110615Z 18008KT 26/19 A301 RMK A01 T02610187  RH  064%=      5-min Rain = 0
KJU1 110616Z 17007KT 26/19 A301 RMK A01 T02600187  RH  064%=      5-min Rain = 0
KJU1 110617Z 17007KT 26/19 A301 RMK A01 T02610187  RH  064%=      5-min Rain = 0
KJU1 110618Z 17008KT 26/19 A301 RMK A01 T02600187  RH  064%=      5-min Rain = 0
KJU1 110619Z 17009KT 26/19 A301 RMK A01 T02600188  RH  064%=      5-min Rain = 0
KJU1 110620Z 17007KT 26/19 A301 RMK A01 T02600188  RH  065%=      5-min Rain = 0
KJU1 110621Z 18007KT 26/19 A301 RMK A01 T02590188  RH  065%=      5-min Rain = 0
KJU1 110622Z 17008KT 26/19 A301 RMK A01 T02590188  RH  065%=      5-min Rain = 0
KJU1 110623Z 18006KT 26/19 A301 RMK A01 T02590188  RH  065%=      5-min Rain = 0
KJU1 110624Z 18006KT 26/19 A301 RMK A01 T02590188  RH  065%=      5-min Rain = 0
KJU1 110625Z 18007KT 26/19 A301 RMK A01 T02580188  RH  065%=      5-min Rain = 0
KJU1 110626Z 18008KT 26/19 A301 RMK A01 T02580189  RH  066%=      5-min Rain = 0
KJU1 110627Z 16008KT 26/19 A301 RMK A01 T02570189  RH  066%=      5-min Rain = 0
KJU1 110628Z 18007G12KT 26/19 A301 RMK A01 T02570189  RH  066%=      5-min Rain = 0
KJU1 110629Z 16010KT 26/19 A3009 RMK A01 T02570189  RH  066%=      5-min Rain = 0
KJU1 110630Z 17009KT 26/19 A301 RMK A01 T02580190  RH  066%=      5-min Rain = 0
KJU1 110631Z 17010KT 26/19 A301 RMK A01 T02580190  RH  066%=      5-min Rain = 0
KJU1 110632Z 17008KT 26/19 A301 RMK A01 T02580190  RH  066%=      5-min Rain = 0
KJU1 110633Z 18008KT 26/19 A301 RMK A01 T02580190  RH  066%=      5-min Rain = 0
KJU1 110634Z 18007KT 26/19 A301 RMK A01 T02580190  RH  066%=      5-min Rain = 0
KJU1 110635Z 17007KT 26/19 A301 RMK A01 T02580190  RH  066%=      5-min Rain = 0
KJU1 110636Z 18007KT 26/19 A301 RMK A01 T02570191  RH  067%=      5-min Rain = 0
KJU1 110637Z 17007KT 26/19 A301 RMK A01 T02570191  RH  067%=      5-min Rain = 0
KJU1 110638Z 18006KT 26/19 A301 RMK A01 T02570191  RH  067%=      5-min Rain = 0
KJU1 110639Z 17008KT 26/19 A301 RMK A01 T02560191  RH  067%=      5-min Rain = 0
KJU1 110640Z 18007KT 26/19 A301 RMK A01 T02560192  RH  067%=      5-min Rain = 0
KJU1 110641Z 17006KT 26/19 A301 RMK A01 T02560192  RH  068%=      5-min Rain = 0
KJU1 110642Z 18007KT 26/19 A301 RMK A01 T02560193  RH  068%=      5-min Rain = 0
KJU1 110643Z 19007KT 26/19 A301 RMK A01 T02560192  RH  068%=      5-min Rain = 0
KJU1 110644Z 19007KT 26/19 A301 RMK A01 T02560193  RH  068%=      5-min Rain = 0
KJU1 110645Z 18007KT 26/19 A301 RMK A01 T02560192  RH  068%=      5-min Rain = 0
KJU1 110646Z 18008KT 26/19 A301 RMK A01 T02560193  RH  068%=      5-min Rain = 0
KJU1 110647Z 19006KT 26/19 A301 RMK A01 T02560193  RH  068%=      5-min Rain = 0
KJU1 110648Z 18007KT 26/19 A301 RMK A01 T02550193  RH  068%=      5-min Rain = 0
KJU1 110649Z 19007KT 26/19 A301 RMK A01 T02550193  RH  069%=      5-min Rain = 0
KJU1 110650Z 18008KT 26/19 A301 RMK A01 T02550194  RH  069%=      5-min Rain = 0
KJU1 110651Z 18009KT 26/19 A301 RMK A01 T02550194  RH  069%=      5-min Rain = 0
KJU1 110652Z 18007KT 26/19 A301 RMK A01 T02550194  RH  069%=      5-min Rain = 0
KJU1 110653Z 19008KT 26/19 A301 RMK A01 T02550194  RH  069%=      5-min Rain = 0
KJU1 110654Z 19007KT 25/19 A301 RMK A01 T02540194  RH  069%=      5-min Rain = 0
KJU1 110655Z 19009KT 25/19 A301 RMK A01 T02540194  RH  070%=      5-min Rain = 0
KJU1 110656Z 18007KT 25/20 A301 RMK A01 T02540195  RH  070%=      5-min Rain = 0
KJU1 110657Z 19008KT 25/20 A301 RMK A01 T02540195  RH  070%=      5-min Rain = 0
KJU1 110658Z 18008KT 25/20 A301 RMK A01 T02530195  RH  070%=      5-min Rain = 0
KJU1 110659Z 19007KT 25/20 A301 RMK A01 T02540195  RH  070%=      5-min Rain = 0
KJU1 110700Z 19009KT 25/20 A301 RMK A01 T02540196  RH  070%=      5-min Rain = 0
KJU1 110701Z 19007KT 25/20 A301 RMK A01 T02540196  RH  070%=      5-min Rain = 0
KJU1 110702Z 18007KT 25/20 A301 RMK A01 T02530196  RH  070%=      5-min Rain = 0
KJU1 110703Z 18008KT 25/20 A301 RMK A01 T02530196  RH  071%=      5-min Rain = 0
KJU1 110704Z 17008KT 25/20 A301 RMK A01 T02530196  RH  071%=      5-min Rain = 0
KJU1 110705Z 18008KT 25/20 A301 RMK A01 T02530196  RH  071%=      5-min Rain = 0
KJU1 110706Z 18006KT 25/20 A301 RMK A01 T02530197  RH  071%=      5-min Rain = 0
KJU1 110707Z 18007KT 25/20 A301 RMK A01 T02530197  RH  071%=      5-min Rain = 0
KJU1 110708Z 19008KT 25/20 A301 RMK A01 T02530197  RH  071%=      5-min Rain = 0
KJU1 110709Z 18008KT 25/20 A3009 RMK A01 T02530197  RH  071%=      5-min Rain = 0
KJU1 110710Z 18006KT 25/20 A3009 RMK A01 T02530197  RH  071%=      5-min Rain = 0
KJU1 110711Z 19008KT 25/20 A3009 RMK A01 T02520197  RH  072%=      5-min Rain = 0
KJU1 110712Z 18008KT 25/20 A3009 RMK A01 T02520198  RH  072%=      5-min Rain = 0
KJU1 110713Z 18010KT 25/20 A3009 RMK A01 T02520198  RH  072%=      5-min Rain = 0
KJU1 110714Z 18011KT 25/20 A3009 RMK A01 T02520198  RH  072%=      5-min Rain = 0
KJU1 110715Z 18009KT 25/20 A3009 RMK A01 T02520198  RH  072%=      5-min Rain = 0
KJU1 110716Z 18007KT 25/20 A3009 RMK A01 T02520198  RH  072%=      5-min Rain = 0
KJU1 110717Z 18008KT 25/20 A3009 RMK A01 T02520199  RH  072%=      5-min Rain = 0
KJU1 110718Z 18008KT 25/20 A3009 RMK A01 T02520199  RH  072%=      5-min Rain = 0
KJU1 110719Z 19008KT 25/20 A3009 RMK A01 T02520199  RH  072%=      5-min Rain = 0
KJU1 110720Z 19010KT 25/20 A3009 RMK A01 T02520199  RH  072%=      5-min Rain = 0
KJU1 110721Z 18009KT 25/20 A3009 RMK A01 T02520199  RH  073%=      5-min Rain = 0
KJU1 110722Z 18007KT 25/20 A3009 RMK A01 T02510199  RH  073%=      5-min Rain = 0
KJU1 110723Z 18007KT 25/20 A3009 RMK A01 T02510199  RH  073%=      5-min Rain = 0
KJU1 110724Z 19008KT 25/20 A3009 RMK A01 T02510199  RH  073%=      5-min Rain = 0
KJU1 110725Z 18007KT 25/20 A3009 RMK A01 T02510200  RH  073%=      5-min Rain = 0
KJU1 110726Z 18010KT 25/20 A3009 RMK A01 T02510200  RH  073%=      5-min Rain = 0
KJU1 110727Z 19008KT 25/20 A3009 RMK A01 T02500200  RH  073%=      5-min Rain = 0
KJU1 110728Z 18008KT 25/20 A3009 RMK A01 T02510200  RH  073%=      5-min Rain = 0
KJU1 110729Z 19006KT 25/20 A3009 RMK A01 T02500200  RH  073%=      5-min Rain = 0
KJU1 110730Z 19007KT 25/20 A3009 RMK A01 T02500200  RH  074%=      5-min Rain = 0
KJU1 110731Z 19008KT 25/20 A3009 RMK A01 T02500200  RH  074%=      5-min Rain = 0
KJU1 110732Z 19008KT 25/20 A3009 RMK A01 T02500201  RH  074%=      5-min Rain = 0
KJU1 110733Z 17008KT 25/20 A3009 RMK A01 T02500201  RH  074%=      5-min Rain = 0
KJU1 110734Z 19007KT 25/20 A3009 RMK A01 T02500201  RH  074%=      5-min Rain = 0
KJU1 110735Z 19009KT 25/20 A3009 RMK A01 T02500201  RH  074%=      5-min Rain = 0
KJU1 110736Z 19007KT 25/20 A3009 RMK A01 T02500201  RH  074%=      5-min Rain = 0
KJU1 110737Z 19009G15KT 25/20 A3009 RMK A01 T02500201  RH  074%=      5-min Rain = 0
KJU1 110738Z 20009KT 25/20 A3009 RMK A01 T02500201  RH  074%=      5-min Rain = 0
KJU1 110739Z 19007KT 25/20 A3009 RMK A01 T02500201  RH  074%=      5-min Rain = 0
KJU1 110740Z 20006KT 25/20 A3009 RMK A01 T02500202  RH  074%=      5-min Rain = 0
KJU1 110741Z 19010KT 25/20 A3009 RMK A01 T02500202  RH  075%=      5-min Rain = 0
KJU1 110742Z 19009KT 25/20 A3009 RMK A01 T02500202  RH  075%=      5-min Rain = 0
KJU1 110743Z 20008KT 25/20 A3009 RMK A01 T02490202  RH  075%=      5-min Rain = 0
KJU1 110744Z 21006KT 25/20 A3009 RMK A01 T02500202  RH  075%=      5-min Rain = 0
KJU1 110745Z 19005KT 25/20 A3009 RMK A01 T02500202  RH  075%=      5-min Rain = 0
KJU1 110746Z 20005KT 25/20 A3009 RMK A01 T02500202  RH  075%=      5-min Rain = 0
KJU1 110747Z 19006KT 25/20 A3009 RMK A01 T02490202  RH  075%=      5-min Rain = 0
KJU1 110748Z 20007KT 25/20 A3009 RMK A01 T02490203  RH  075%=      5-min Rain = 0
KJU1 110749Z 19006KT 25/20 A3009 RMK A01 T02490203  RH  075%=      5-min Rain = 0
KJU1 110750Z 20006KT 25/20 A3009 RMK A01 T02490203  RH  075%=      5-min Rain = 0
KJU1 110751Z 19006KT 25/20 A3009 RMK A01 T02490203  RH  076%=      5-min Rain = 0
KJU1 110752Z 19005KT 25/20 A3009 RMK A01 T02490203  RH  076%=      5-min Rain = 0
KJU1 110753Z 20006KT 25/20 A3009 RMK A01 T02490203  RH  076%=      5-min Rain = 0
KJU1 110754Z 20006KT 25/20 A3009 RMK A01 T02490203  RH  076%=      5-min Rain = 0
KJU1 110755Z 20007KT 25/20 A3009 RMK A01 T02480203  RH  076%=      5-min Rain = 0
KJU1 110756Z 20005KT 25/20 A3009 RMK A01 T02490203  RH  076%=      5-min Rain = 0
KJU1 110757Z 21005KT 25/20 A3009 RMK A01 T02480203  RH  076%=      5-min Rain = 0
KJU1 110758Z 20006KT 25/20 A3009 RMK A01 T02470203  RH  076%=      5-min Rain = 0
KJU1 110759Z 21007KT 25/20 A3009 RMK A01 T02470203  RH  077%=      5-min Rain = 0
KJU1 110800Z 20006KT 25/20 A3009 RMK A01 T02470203  RH  076%=      5-min Rain = 0
KJU1 110801Z 21005KT 25/20 A3009 RMK A01 T02480203  RH  076%=      5-min Rain = 0
KJU1 110802Z 22003KT 25/20 A3009 RMK A01 T02480203  RH  076%=      5-min Rain = 0
KJU1 110803Z 22003KT 25/20 A3009 RMK A01 T02470203  RH  077%=      5-min Rain = 0
KJU1 110804Z 21006KT 25/20 A3009 RMK A01 T02470204  RH  077%=      5-min Rain = 0
KJU1 110805Z 21004KT 25/20 A3009 RMK A01 T02470204  RH  077%=      5-min Rain = 0
KJU1 110806Z 21004KT 25/20 A3009 RMK A01 T02470204  RH  077%=      5-min Rain = 0
KJU1 110807Z 21004KT 25/20 A3009 RMK A01 T02470204  RH  077%=      5-min Rain = 0
KJU1 110808Z 20003KT 25/20 A3009 RMK A01 T02460204  RH  077%=      5-min Rain = 0
KJU1 110809Z 20004KT 25/20 A3009 RMK A01 T02460204  RH  077%=      5-min Rain = 0
KJU1 110810Z 20004KT 25/20 A3009 RMK A01 T02460204  RH  077%=      5-min Rain = 0
KJU1 110811Z 20004KT 25/20 A3009 RMK A01 T02460204  RH  077%=      5-min Rain = 0
KJU1 110812Z 21003KT 25/20 A3009 RMK A01 T02460204  RH  078%=      5-min Rain = 0
KJU1 110813Z 19003KT 25/20 A3009 RMK A01 T02450204  RH  078%=      5-min Rain = 0
KJU1 110814Z 19003KT 25/20 A3009 RMK A01 T02450204  RH  078%=      5-min Rain = 0
KJU1 110815Z 19003KT 24/20 A3009 RMK A01 T02440204  RH  078%=      5-min Rain = 0
KJU1 110816Z 19003KT 24/20 A3009 RMK A01 T02440204  RH  078%=      5-min Rain = 0
KJU1 110817Z 19002KT 24/20 A3009 RMK A01 T02440204  RH  078%=      5-min Rain = 0
KJU1 110818Z 19003KT 24/20 A3009 RMK A01 T02430204  RH  079%=      5-min Rain = 0
KJU1 110819Z 20003KT 24/20 A3009 RMK A01 T02430204  RH  079%=      5-min Rain = 0
KJU1 110820Z 19003KT 24/20 A3009 RMK A01 T02430204  RH  079%=      5-min Rain = 0
KJU1 110821Z 20003KT 24/20 A3009 RMK A01 T02430204  RH  079%=      5-min Rain = 0
KJU1 110822Z 21002KT 24/20 A3009 RMK A01 T02430204  RH  079%=      5-min Rain = 0
KJU1 110823Z 19002KT 24/20 A3009 RMK A01 T02420204  RH  079%=      5-min Rain = 0
KJU1 110824Z 19002KT 24/20 A3009 RMK A01 T02420204  RH  079%=      5-min Rain = 0
KJU1 110825Z 18001KT 24/20 A301 RMK A01 T02410204  RH  080%=      5-min Rain = 0
KJU1 110826Z 19003KT 24/20 A301 RMK A01 T02410204  RH  080%=      5-min Rain = 0
KJU1 110827Z 19003KT 24/20 A301 RMK A01 T02410204  RH  080%=      5-min Rain = 0
KJU1 110828Z 19002KT 24/20 A301 RMK A01 T02410204  RH  080%=      5-min Rain = 0
KJU1 110829Z 19004KT 24/20 A301 RMK A01 T02410204  RH  080%=      5-min Rain = 0
KJU1 110830Z 18003KT 24/20 A301 RMK A01 T02410204  RH  080%=      5-min Rain = 0
KJU1 110831Z 18003KT 24/20 A301 RMK A01 T02410204  RH  080%=      5-min Rain = 0
KJU1 110832Z 18003KT 24/20 A301 RMK A01 T02400204  RH  080%=      5-min Rain = 0
KJU1 110833Z 18003KT 24/20 A301 RMK A01 T02400204  RH  080%=      5-min Rain = 0
KJU1 110834Z 18003KT 24/20 A301 RMK A01 T02400204  RH  080%=      5-min Rain = 0
KJU1 110835Z 18003KT 24/20 A301 RMK A01 T02400204  RH  080%=      5-min Rain = 0
KJU1 110836Z 17002KT 24/20 A301 RMK A01 T02390204  RH  081%=      5-min Rain = 0
KJU1 110837Z 17003KT 24/20 A301 RMK A01 T02390204  RH  081%=      5-min Rain = 0
KJU1 110838Z 16002KT 24/20 A301 RMK A01 T02390204  RH  081%=      5-min Rain = 0
KJU1 110839Z 16003KT 24/20 A301 RMK A01 T02380204  RH  081%=      5-min Rain = 0
KJU1 110840Z 16003KT 24/20 A301 RMK A01 T02380204  RH  081%=      5-min Rain = 0
KJU1 110841Z 16002KT 24/20 A301 RMK A01 T02370204  RH  081%=      5-min Rain = 0
KJU1 110842Z 17002KT 24/20 A301 RMK A01 T02370204  RH  082%=      5-min Rain = 0
KJU1 110843Z 17002KT 24/20 A301 RMK A01 T02370204  RH  082%=      5-min Rain = 0
KJU1 110844Z 17002KT 24/20 A301 RMK A01 T02370204  RH  082%=      5-min Rain = 0
KJU1 110845Z 17003KT 24/20 A301 RMK A01 T02370204  RH  082%=      5-min Rain = 0
KJU1 110846Z 16003KT 24/20 A301 RMK A01 T02370204  RH  082%=      5-min Rain = 0
KJU1 110847Z 17002KT 24/20 A301 RMK A01 T02360204  RH  082%=      5-min Rain = 0
KJU1 110848Z 15002KT 24/20 A301 RMK A01 T02360204  RH  082%=      5-min Rain = 0
KJU1 110849Z 15003KT 24/20 A301 RMK A01 T02350204  RH  082%=      5-min Rain = 0
KJU1 110850Z 15002KT 24/20 A301 RMK A01 T02350204  RH  083%=      5-min Rain = 0
KJU1 110851Z 15002KT 24/20 A301 RMK A01 T02350204  RH  082%=      5-min Rain = 0
KJU1 110852Z 15002KT 24/20 A301 RMK A01 T02350204  RH  082%=      5-min Rain = 0
KJU1 110853Z 16002KT 24/20 A301 RMK A01 T02350204  RH  083%=      5-min Rain = 0
KJU1 110854Z 16001KT 24/20 A301 RMK A01 T02350203  RH  083%=      5-min Rain = 0
KJU1 110855Z 17002KT 23/20 A301 RMK A01 T02340203  RH  083%=      5-min Rain = 0
KJU1 110856Z 17001KT 23/20 A301 RMK A01 T02330203  RH  083%=      5-min Rain = 0
KJU1 110857Z 17001KT 23/20 A301 RMK A01 T02330203  RH  083%=      5-min Rain = 0
KJU1 110858Z 17002KT 23/20 A301 RMK A01 T02330204  RH  084%=      5-min Rain = 0
KJU1 110859Z 17002KT 23/20 A301 RMK A01 T02320203  RH  084%=      5-min Rain = 0
KJU1 110900Z 17001KT 23/20 A301 RMK A01 T02320203  RH  084%=      5-min Rain = 0
KJU1 110901Z 17001KT 23/20 A301 RMK A01 T02320203  RH  084%=      5-min Rain = 0
KJU1 110902Z 19001KT 23/20 A301 RMK A01 T02310203  RH  084%=      5-min Rain = 0
KJU1 110903Z 18001KT 23/20 A301 RMK A01 T02300203  RH  085%=      5-min Rain = 0
KJU1 110904Z 19001KT 23/20 A301 RMK A01 T02300203  RH  085%=      5-min Rain = 0
KJU1 110905Z 20002KT 23/20 A301 RMK A01 T02300203  RH  085%=      5-min Rain = 0
KJU1 110906Z 19002KT 23/20 A301 RMK A01 T02300203  RH  085%=      5-min Rain = 0
KJU1 110907Z 19002KT 23/20 A301 RMK A01 T02300204  RH  085%=      5-min Rain = 0
KJU1 110908Z 19002KT 23/20 A301 RMK A01 T02300203  RH  085%=      5-min Rain = 0
KJU1 110909Z 19003KT 23/20 A301 RMK A01 T02300203  RH  085%=      5-min Rain = 0
KJU1 110910Z 19002KT 23/20 A301 RMK A01 T02280202  RH  085%=      5-min Rain = 0
KJU1 110911Z 19002KT 23/20 A301 RMK A01 T02280202  RH  085%=      5-min Rain = 0
KJU1 110912Z 19002KT 23/20 A301 RMK A01 T02270202  RH  086%=      5-min Rain = 0
KJU1 110913Z 19002KT 23/20 A301 RMK A01 T02270203  RH  086%=      5-min Rain = 0
KJU1 110914Z 20002KT 23/20 A301 RMK A01 T02260203  RH  086%=      5-min Rain = 0
KJU1 110915Z 18002KT 23/20 A301 RMK A01 T02270203  RH  086%=      5-min Rain = 0
KJU1 110916Z 19002KT 23/20 A301 RMK A01 T02270203  RH  086%=      5-min Rain = 0
KJU1 110917Z 19002KT 23/20 A301 RMK A01 T02270203  RH  087%=      5-min Rain = 0
KJU1 110918Z 18004KT 23/20 A301 RMK A01 T02260203  RH  087%=      5-min Rain = 0
KJU1 110919Z 19004KT 23/21 A301 RMK A01 T02270205  RH  087%=      5-min Rain = 0
KJU1 110920Z 19004KT 23/20 A301 RMK A01 T02280204  RH  086%=      5-min Rain = 0
KJU1 110921Z 18004KT 23/20 A301 RMK A01 T02290204  RH  086%=      5-min Rain = 0
KJU1 110922Z 18003KT 23/21 A301 RMK A01 T02300205  RH  086%=      5-min Rain = 0
KJU1 110923Z 17003KT 23/20 A301 RMK A01 T02300204  RH  085%=      5-min Rain = 0
KJU1 110924Z 18004KT 23/20 A301 RMK A01 T02300204  RH  085%=      5-min Rain = 0
KJU1 110925Z 17004KT 23/20 A301 RMK A01 T02300204  RH  085%=      5-min Rain = 0
KJU1 110926Z 17003KT 23/20 A301 RMK A01 T02300204  RH  085%=      5-min Rain = 0
KJU1 110927Z 17004KT 23/20 A301 RMK A01 T02290203  RH  085%=      5-min Rain = 0
KJU1 110928Z 17003KT 23/20 A301 RMK A01 T02290204  RH  086%=      5-min Rain = 0
KJU1 110929Z 18003KT 23/20 A301 RMK A01 T02290204  RH  086%=      5-min Rain = 0
KJU1 110930Z 17004KT 23/20 A301 RMK A01 T02280204  RH  086%=      5-min Rain = 0
KJU1 110931Z 18003KT 23/20 A301 RMK A01 T02280203  RH  086%=      5-min Rain = 0
KJU1 110932Z 18003KT 23/20 A301 RMK A01 T02280204  RH  086%=      5-min Rain = 0
KJU1 110933Z 17004KT 23/20 A301 RMK A01 T02280204  RH  086%=      5-min Rain = 0
KJU1 110934Z 17004KT 23/20 A301 RMK A01 T02280204  RH  086%=      5-min Rain = 0
KJU1 110935Z 17004KT 23/20 A301 RMK A01 T02280204  RH  086%=      5-min Rain = 0
KJU1 110936Z 17003KT 23/20 A301 RMK A01 T02280204  RH  086%=      5-min Rain = 0
KJU1 110937Z 18003KT 23/20 A301 RMK A01 T02280204  RH  086%=      5-min Rain = 0
KJU1 110938Z 19003KT 23/20 A301 RMK A01 T02280204  RH  086%=      5-min Rain = 0
KJU1 110939Z 19004KT 23/20 A301 RMK A01 T02290204  RH  086%=      5-min Rain = 0
KJU1 110940Z 19004KT 23/20 A301 RMK A01 T02290204  RH  086%=      5-min Rain = 0
KJU1 110941Z 20003KT 23/21 A301 RMK A01 T02290205  RH  086%=      5-min Rain = 0
KJU1 110942Z 19003KT 23/21 A301 RMK A01 T02290205  RH  086%=      5-min Rain = 0
KJU1 110943Z 20003KT 23/20 A301 RMK A01 T02290204  RH  086%=      5-min Rain = 0
KJU1 110944Z 20003KT 23/20 A301 RMK A01 T02290204  RH  086%=      5-min Rain = 0
KJU1 110945Z 19002KT 23/21 A301 RMK A01 T02290205  RH  086%=      5-min Rain = 0
KJU1 110946Z 20003KT 23/21 A301 RMK A01 T02290205  RH  086%=      5-min Rain = 0
KJU1 110947Z 20003KT 23/21 A301 RMK A01 T02290205  RH  086%=      5-min Rain = 0
KJU1 110948Z 20003KT 23/21 A301 RMK A01 T02290205  RH  086%=      5-min Rain = 0
KJU1 110949Z 20003KT 23/21 A301 RMK A01 T02290205  RH  086%=      5-min Rain = 0
KJU1 110950Z 22002KT 23/21 A301 RMK A01 T02290205  RH  086%=      5-min Rain = 0
KJU1 110951Z 23002KT 23/21 A301 RMK A01 T02290205  RH  086%=      5-min Rain = 0
KJU1 110952Z 22002KT 23/21 A301 RMK A01 T02290205  RH  086%=      5-min Rain = 0
KJU1 110953Z 21002KT 23/21 A301 RMK A01 T02290205  RH  086%=      5-min Rain = 0
KJU1 110954Z 22002KT 23/21 A301 RMK A01 T02290205  RH  086%=      5-min Rain = 0
KJU1 110955Z 24002KT 23/21 A301 RMK A01 T02290205  RH  086%=      5-min Rain = 0
KJU1 110956Z 22003KT 23/21 A301 RMK A01 T02280205  RH  087%=      5-min Rain = 0
KJU1 110957Z 23002KT 23/21 A301 RMK A01 T02280205  RH  087%=      5-min Rain = 0
KJU1 110958Z 24002KT 23/21 A301 RMK A01 T02280205  RH  087%=      5-min Rain = 0
KJU1 110959Z 23002KT 23/21 A301 RMK A01 T02280205  RH  087%=      5-min Rain = 0
KJU1 111000Z 22003KT 23/21 A301 RMK A01 T02270205  RH  087%=      5-min Rain = 0
KJU1 111001Z 23002KT 23/21 A301 RMK A01 T02280205  RH  087%=      5-min Rain = 0
KJU1 111002Z 22001KT 23/20 A301 RMK A01 T02280204  RH  087%=      5-min Rain = 0
KJU1 111003Z 21001KT 23/20 A301 RMK A01 T02270203  RH  087%=      5-min Rain = 0
KJU1 111004Z 19001KT 23/20 A301 RMK A01 T02260204  RH  087%=      5-min Rain = 0
KJU1 111005Z 20002KT 23/20 A301 RMK A01 T02260204  RH  088%=      5-min Rain = 0
KJU1 111006Z 21001KT 23/20 A301 RMK A01 T02250204  RH  088%=      5-min Rain = 0
KJU1 111007Z 22001KT 22/20 A301 RMK A01 T02240203  RH  088%=      5-min Rain = 0
KJU1 111008Z 21001KT 22/20 A301 RMK A01 T02240203  RH  088%=      5-min Rain = 0
KJU1 111009Z 20001KT 22/20 A301 RMK A01 T02230202  RH  088%=      5-min Rain = 0
KJU1 111010Z 21001KT 22/20 A301 RMK A01 T02220203  RH  089%=      5-min Rain = 0
KJU1 111011Z 22001KT 22/20 A301 RMK A01 T02220203  RH  089%=      5-min Rain = 0
KJU1 111012Z 24001KT 22/20 A301 RMK A01 T02210202  RH  089%=      5-min Rain = 0
KJU1 111013Z 25001KT 22/20 A301 RMK A01 T02210202  RH  089%=      5-min Rain = 0
KJU1 111014Z 25001KT 22/20 A301 RMK A01 T02200203  RH  090%=      5-min Rain = 0
KJU1 111015Z 25001KT 22/20 A301 RMK A01 T02200204  RH  090%=      5-min Rain = 0
KJU1 111016Z 24001KT 22/20 A301 RMK A01 T02200204  RH  091%=      5-min Rain = 0
KJU1 111017Z 24000KT 22/20 A301 RMK A01 T02200204  RH  091%=      5-min Rain = 0
KJU1 111018Z 24000KT 22/20 A301 RMK A01 T02190202  RH  090%=      5-min Rain = 0
KJU1 111019Z 00000KT 22/20 A301 RMK A01 T02180201  RH  090%=      5-min Rain = 0
KJU1 111020Z 00000KT 22/20 A301 RMK A01 T02170201  RH  091%=      5-min Rain = 0
KJU1 111021Z 00000KT 22/20 A301 RMK A01 T02160202  RH  091%=      5-min Rain = 0
KJU1 111022Z 00000KT 22/20 A301 RMK A01 T02160202  RH  092%=      5-min Rain = 0
KJU1 111023Z 00000KT 22/20 A301 RMK A01 T02160202  RH  092%=      5-min Rain = 0
KJU1 111024Z 00000KT 22/20 A301 RMK A01 T02150200  RH  091%=      5-min Rain = 0
KJU1 111025Z 00000KT 21/20 A301 RMK A01 T02140200  RH  092%=      5-min Rain = 0
KJU1 111026Z 10001KT 21/20 A301 RMK A01 T02140201  RH  092%=      5-min Rain = 0
KJU1 111027Z 10000KT 21/20 A301 RMK A01 T02130200  RH  092%=      5-min Rain = 0
KJU1 111028Z 00000KT 21/20 A301 RMK A01 T02120200  RH  093%=      5-min Rain = 0
KJU1 111029Z 00000KT 21/20 A301 RMK A01 T02120200  RH  093%=      5-min Rain = 0
KJU1 111030Z 00000KT 21/20 A301 RMK A01 T02110199  RH  093%=      5-min Rain = 0
KJU1 111031Z 00000KT 21/20 A301 RMK A01 T02100199  RH  093%=      5-min Rain = 0
KJU1 111032Z 00000KT 21/20 A301 RMK A01 T02100199  RH  093%=      5-min Rain = 0
KJU1 111033Z 00000KT 21/20 A301 RMK A01 T02100199  RH  094%=      5-min Rain = 0
KJU1 111034Z 00000KT 21/20 A301 RMK A01 T02100200  RH  094%=      5-min Rain = 0
KJU1 111035Z 00000KT 21/20 A301 RMK A01 T02100200  RH  094%=      5-min Rain = 0
KJU1 111036Z 03000KT 21/20 A301 RMK A01 T02100200  RH  094%=      5-min Rain = 0
KJU1 111037Z 00000KT 21/20 A301 RMK A01 T02100200  RH  095%=      5-min Rain = 0
KJU1 111038Z 00000KT 21/20 A301 RMK A01 T02100201  RH  095%=      5-min Rain = 0
KJU1 111039Z 03000KT 21/20 A301 RMK A01 T02100201  RH  095%=      5-min Rain = 0
KJU1 111040Z 00000KT 21/20 A301 RMK A01 T02100201  RH  095%=      5-min Rain = 0
KJU1 111041Z 00000KT 21/20 A301 RMK A01 T02100201  RH  095%=      5-min Rain = 0
KJU1 111042Z 00000KT 21/20 A301 RMK A01 T02100202  RH  095%=      5-min Rain = 0
KJU1 111043Z 00000KT 21/20 A301 RMK A01 T02110202  RH  095%=      5-min Rain = 0
KJU1 111044Z 00000KT 21/20 A301 RMK A01 T02100202  RH  095%=      5-min Rain = 0
KJU1 111045Z 00000KT 21/20 A301 RMK A01 T02100201  RH  095%=      5-min Rain = 0
KJU1 111046Z 00000KT 21/20 A301 RMK A01 T02100201  RH  094%=      5-min Rain = 0
KJU1 111047Z 00000KT 21/20 A301 RMK A01 T02100201  RH  095%=      5-min Rain = 0
KJU1 111048Z 00000KT 21/20 A301 RMK A01 T02100201  RH  095%=      5-min Rain = 0
KJU1 111049Z 00000KT 21/20 A301 RMK A01 T02090199  RH  094%=      5-min Rain = 0
KJU1 111050Z 00000KT 21/20 A301 RMK A01 T02080198  RH  094%=      5-min Rain = 0
KJU1 111051Z 00000KT 21/20 A301 RMK A01 T02070198  RH  095%=      5-min Rain = 0
KJU1 111052Z 00000KT 21/20 A301 RMK A01 T02080199  RH  095%=      5-min Rain = 0
KJU1 111053Z 00000KT 21/20 A301 RMK A01 T02080199  RH  095%=      5-min Rain = 0
KJU1 111054Z 00000KT 21/20 A301 RMK A01 T02080200  RH  095%=      5-min Rain = 0
KJU1 111055Z 00000KT 21/20 A301 RMK A01 T02080200  RH  095%=      5-min Rain = 0
KJU1 111056Z 00000KT 21/20 A301 RMK A01 T02090201  RH  095%=      5-min Rain = 0
KJU1 111057Z 00000KT 21/20 A301 RMK A01 T02090201  RH  095%=      5-min Rain = 0
KJU1 111058Z 00000KT 21/20 A301 RMK A01 T02090200  RH  095%=      5-min Rain = 0
KJU1 111059Z 00000KT 21/20 A301 RMK A01 T02080199  RH  095%=      5-min Rain = 0
KJU1 111100Z 00000KT 21/20 A301 RMK A01 T02070198  RH  095%=      5-min Rain = 0
KJU1 111101Z 00000KT 21/20 A301 RMK A01 T02070197  RH  094%=      5-min Rain = 0
KJU1 111102Z 23000KT 21/20 A301 RMK A01 T02060196  RH  094%=      5-min Rain = 0
KJU1 111103Z 23001KT 21/20 A301 RMK A01 T02060197  RH  095%=      5-min Rain = 0
KJU1 111104Z 23001KT 21/20 A301 RMK A01 T02050197  RH  095%=      5-min Rain = 0
KJU1 111105Z 23000KT 21/20 A301 RMK A01 T02050197  RH  095%=      5-min Rain = 0
KJU1 111106Z 00000KT 21/20 A301 RMK A01 T02050197  RH  095%=      5-min Rain = 0
KJU1 111107Z 00000KT 20/20 A301 RMK A01 T02040196  RH  095%=      5-min Rain = 0
KJU1 111108Z 00000KT 20/20 A301 RMK A01 T02040196  RH  095%=      5-min Rain = 0
KJU1 111109Z 00000KT 20/20 A301 RMK A01 T02030196  RH  095%=      5-min Rain = 0
KJU1 111110Z 00000KT 20/20 A301 RMK A01 T02030196  RH  096%=      5-min Rain = 0
KJU1 111111Z 00000KT 20/20 A301 RMK A01 T02030196  RH  096%=      5-min Rain = 0
KJU1 111112Z 00000KT 20/20 A3011 RMK A01 T02030196  RH  096%=      5-min Rain = 0
KJU1 111113Z 23000KT 20/20 A3011 RMK A01 T02030196  RH  096%=      5-min Rain = 0
KJU1 111114Z 22000KT 20/20 A3011 RMK A01 T02030197  RH  096%=      5-min Rain = 0
KJU1 111115Z 11001KT 20/20 A3011 RMK A01 T02030197  RH  096%=      5-min Rain = 0
KJU1 111116Z 11001KT 20/20 A3011 RMK A01 T02030197  RH  096%=      5-min Rain = 0
KJU1 111117Z 11001KT 20/20 A3011 RMK A01 T02030198  RH  096%=      5-min Rain = 0
KJU1 111118Z 11000KT 20/20 A3011 RMK A01 T02040198  RH  097%=      5-min Rain = 0
KJU1 111119Z 11001KT 20/20 A3011 RMK A01 T02040199  RH  097%=      5-min Rain = 0
KJU1 111120Z 11001KT 21/20 A3011 RMK A01 T02050200  RH  097%=      5-min Rain = 0
KJU1 111121Z 11000KT 21/20 A3011 RMK A01 T02050200  RH  097%=      5-min Rain = 0
KJU1 111122Z 00000KT 21/20 A3011 RMK A01 T02060200  RH  097%=      5-min Rain = 0
KJU1 111123Z 00000KT 21/20 A3011 RMK A01 T02050199  RH  096%=      5-min Rain = 0
KJU1 111124Z 00000KT 20/20 A3011 RMK A01 T02040198  RH  096%=      5-min Rain = 0
KJU1 111125Z 00000KT 20/20 A3011 RMK A01 T02040197  RH  096%=      5-min Rain = 0
KJU1 111126Z 00000KT 20/20 A3011 RMK A01 T02030196  RH  096%=      5-min Rain = 0
KJU1 111127Z 12000KT 20/20 A3011 RMK A01 T02030196  RH  096%=      5-min Rain = 0
KJU1 111128Z 12001KT 20/20 A3011 RMK A01 T02030196  RH  096%=      5-min Rain = 0
KJU1 111129Z 11002KT 20/20 A3011 RMK A01 T02030196  RH  096%=      5-min Rain = 0
KJU1 111130Z 12002KT 20/20 A3011 RMK A01 T02020196  RH  096%=      5-min Rain = 0
KJU1 111131Z 12002KT 20/20 A3011 RMK A01 T02030197  RH  096%=      5-min Rain = 0
KJU1 111132Z 12002KT 20/20 A3011 RMK A01 T02030197  RH  096%=      5-min Rain = 0
KJU1 111133Z 14002KT 20/20 A3011 RMK A01 T02020195  RH  096%=      5-min Rain = 0
KJU1 111134Z 15002KT 20/19 A3011 RMK A01 T02020194  RH  096%=      5-min Rain = 0
KJU1 111135Z 16002KT 20/20 A3011 RMK A01 T02010195  RH  096%=      5-min Rain = 0
KJU1 111136Z 16003KT 20/20 A3011 RMK A01 T02010195  RH  096%=      5-min Rain = 0
KJU1 111137Z 17003KT 20/20 A3011 RMK A01 T02020196  RH  096%=      5-min Rain = 0
KJU1 111138Z 17003KT 20/20 A3011 RMK A01 T02020197  RH  097%=      5-min Rain = 0
KJU1 111139Z 18003KT 20/20 A3011 RMK A01 T02030198  RH  097%=      5-min Rain = 0
KJU1 111140Z 18003KT 20/20 A3011 RMK A01 T02030198  RH  097%=      5-min Rain = 0
KJU1 111141Z 18003KT 20/20 A3011 RMK A01 T02030198  RH  097%=      5-min Rain = 0
KJU1 111142Z 18003KT 20/20 A3011 RMK A01 T02030198  RH  097%=      5-min Rain = 0
KJU1 111143Z 18003KT 20/20 A3011 RMK A01 T02030198  RH  097%=      5-min Rain = 0
KJU1 111144Z 18003KT 20/20 A3011 RMK A01 T02030197  RH  096%=      5-min Rain = 0
KJU1 111145Z 18003KT 20/20 A3011 RMK A01 T02020196  RH  096%=      5-min Rain = 0
KJU1 111146Z 18003KT 20/19 A3011 RMK A01 T02010194  RH  096%=      5-min Rain = 0
KJU1 111147Z 18003KT 20/19 A3011 RMK A01 T02000194  RH  096%=      5-min Rain = 0
KJU1 111148Z 18003KT 20/20 A3011 RMK A01 T02010195  RH  097%=      5-min Rain = 0
KJU1 111149Z 18003KT 20/20 A3011 RMK A01 T02010196  RH  097%=      5-min Rain = 0
KJU1 111150Z 19002KT 20/20 A3011 RMK A01 T02010196  RH  097%=      5-min Rain = 0
KJU1 111151Z 20002KT 20/20 A3011 RMK A01 T02010196  RH  097%=      5-min Rain = 0
KJU1 111152Z 20002KT 20/20 A3011 RMK A01 T02030199  RH  097%=      5-min Rain = 0
KJU1 111153Z 20001KT 20/20 A3011 RMK A01 T02030199  RH  098%=      5-min Rain = 0
KJU1 111154Z 22001KT 20/20 A3011 RMK A01 T02040200  RH  097%=      5-min Rain = 0
KJU1 111155Z 24001KT 20/20 A3011 RMK A01 T02040199  RH  097%=      5-min Rain = 0
KJU1 111156Z 24001KT 20/20 A3011 RMK A01 T02040199  RH  097%=      5-min Rain = 0
KJU1 111157Z 25001KT 20/20 A3011 RMK A01 T02040200  RH  097%=      5-min Rain = 0
KJU1 111158Z 27001KT 21/20 A3012 RMK A01 T02050200  RH  097%=      5-min Rain = 0
KJU1 111159Z 29001KT 21/20 A3012 RMK A01 T02050201  RH  097%=      5-min Rain = 0
KJU1 111200Z 30001KT 21/20 A3012 RMK A01 T02060201  RH  097%=      5-min Rain = 0
KJU1 111201Z 31001KT 21/20 A3012 RMK A01 T02050201  RH  097%=      5-min Rain = 0
KJU1 111202Z 31001KT 21/20 A3012 RMK A01 T02060201  RH  097%=      5-min Rain = 0
KJU1 111203Z 31000KT 21/20 A3012 RMK A01 T02060202  RH  097%=      5-min Rain = 0
KJU1 111204Z 00000KT 21/20 A3012 RMK A01 T02070202  RH  097%=      5-min Rain = 0
KJU1 111205Z 00000KT 21/20 A3012 RMK A01 T02050200  RH  097%=      5-min Rain = 0
KJU1 111206Z 00000KT 21/20 A3012 RMK A01 T02050199  RH  097%=      5-min Rain = 0
KJU1 111207Z 00000KT 20/20 A3012 RMK A01 T02040198  RH  097%=      5-min Rain = 0
KJU1 111208Z 00000KT 20/20 A3011 RMK A01 T02040198  RH  097%=      5-min Rain = 0
KJU1 111209Z 00000KT 20/20 A3011 RMK A01 T02040198  RH  097%=      5-min Rain = 0
KJU1 111210Z 00000KT 20/20 A3012 RMK A01 T02040198  RH  097%=      5-min Rain = 0
KJU1 111211Z 00000KT 20/20 A3012 RMK A01 T02040198  RH  097%=      5-min Rain = 0
KJU1 111212Z 15001KT 20/20 A3012 RMK A01 T02030197  RH  096%=      5-min Rain = 0
KJU1 111213Z 14001KT 20/20 A3012 RMK A01 T02030197  RH  096%=      5-min Rain = 0
KJU1 111214Z 15001KT 20/20 A3012 RMK A01 T02020196  RH  096%=      5-min Rain = 0
KJU1 111215Z 15001KT 20/20 A3012 RMK A01 T02020197  RH  097%=      5-min Rain = 0
KJU1 111216Z 15001KT 20/20 A3012 RMK A01 T02020197  RH  097%=      5-min Rain = 0
KJU1 111217Z 15001KT 20/20 A3012 RMK A01 T02030198  RH  097%=      5-min Rain = 0
KJU1 111218Z 15001KT 20/20 A3012 RMK A01 T02030198  RH  097%=      5-min Rain = 0
KJU1 111219Z 15001KT 20/20 A3012 RMK A01 T02030198  RH  097%=      5-min Rain = 0
KJU1 111220Z 17001KT 20/20 A3012 RMK A01 T02040198  RH  097%=      5-min Rain = 0
KJU1 111221Z 17001KT 20/20 A3012 RMK A01 T02040199  RH  097%=      5-min Rain = 0
KJU1 111222Z 17001KT 21/20 A3012 RMK A01 T02050199  RH  097%=      5-min Rain = 0
KJU1 111223Z 17000KT 21/20 A3013 RMK A01 T02050200  RH  097%=      5-min Rain = 0
KJU1 111224Z 17000KT 21/20 A3013 RMK A01 T02060200  RH  097%=      5-min Rain = 0
KJU1 111225Z 00000KT 21/20 A3013 RMK A01 T02070201  RH  097%=      5-min Rain = 0
KJU1 111226Z 30000KT 21/20 A3012 RMK A01 T02070202  RH  097%=      5-min Rain = 0
KJU1 111227Z 30001KT 21/20 A3012 RMK A01 T02080203  RH  097%=      5-min Rain = 0
KJU1 111228Z 30001KT 21/20 A3012 RMK A01 T02090204  RH  097%=      5-min Rain = 0
KJU1 111229Z 30001KT 21/20 A3012 RMK A01 T02100204  RH  096%=      5-min Rain = 0
KJU1 111230Z 30001KT 21/20 A3013 RMK A01 T02100204  RH  096%=      5-min Rain = 0
KJU1 111231Z 30001KT 21/21 A3013 RMK A01 T02110205  RH  096%=      5-min Rain = 0
KJU1 111232Z 30001KT 21/21 A3013 RMK A01 T02120205  RH  096%=      5-min Rain = 0
KJU1 111233Z 31001KT 21/21 A3013 RMK A01 T02130205  RH  095%=      5-min Rain = 0
KJU1 111234Z 31001KT 21/21 A3013 RMK A01 T02130206  RH  095%=      5-min Rain = 0
KJU1 111235Z 31001KT 21/21 A3013 RMK A01 T02140206  RH  095%=      5-min Rain = 0
KJU1 111236Z 32001KT 22/21 A3013 RMK A01 T02150207  RH  095%=      5-min Rain = 0
KJU1 111237Z 33001KT 22/21 A3013 RMK A01 T02160207  RH  095%=      5-min Rain = 0
KJU1 111238Z 32001KT 22/21 A3013 RMK A01 T02160207  RH  095%=      5-min Rain = 0
KJU1 111239Z 32001KT 22/21 A3013 RMK A01 T02170207  RH  094%=      5-min Rain = 0
KJU1 111240Z 33000KT 22/21 A3013 RMK A01 T02170207  RH  094%=      5-min Rain = 0
KJU1 111241Z 00000KT 22/21 A3013 RMK A01 T02190209  RH  094%=      5-min Rain = 0
KJU1 111242Z 00000KT 22/21 A3013 RMK A01 T02190208  RH  094%=      5-min Rain = 0
KJU1 111243Z 00000KT 22/21 A3013 RMK A01 T02200208  RH  093%=      5-min Rain = 0
KJU1 111244Z 00000KT 22/21 A3013 RMK A01 T02210209  RH  093%=      5-min Rain = 0
KJU1 111245Z 00000KT 22/21 A3013 RMK A01 T02220209  RH  093%=      5-min Rain = 0
KJU1 111246Z 00000KT 22/21 A3013 RMK A01 T02230210  RH  092%=      5-min Rain = 0
KJU1 111247Z 00000KT 23/21 A3013 RMK A01 T02250210  RH  092%=      5-min Rain = 0
KJU1 111248Z 00000KT 23/21 A3013 RMK A01 T02260210  RH  091%=      5-min Rain = 0
KJU1 111249Z 17000KT 23/21 A3013 RMK A01 T02270210  RH  090%=      5-min Rain = 0
KJU1 111250Z 17000KT 23/21 A3013 RMK A01 T02280209  RH  089%=      5-min Rain = 0
KJU1 111251Z 15001KT 23/21 A3013 RMK A01 T02280209  RH  089%=      5-min Rain = 0
KJU1 111252Z 17001KT 23/21 A3013 RMK A01 T02290210  RH  089%=      5-min Rain = 0
KJU1 111253Z 17000KT 23/21 A3013 RMK A01 T02300210  RH  089%=      5-min Rain = 0
KJU1 111254Z 17000KT 23/21 A3013 RMK A01 T02300210  RH  088%=      5-min Rain = 0
KJU1 111255Z 00000KT 23/21 A3013 RMK A01 T02310210  RH  088%=      5-min Rain = 0
KJU1 111256Z 00000KT 23/21 A3013 RMK A01 T02320210  RH  088%=      5-min Rain = 0
KJU1 111257Z 00000KT 23/21 A3013 RMK A01 T02340212  RH  087%=      5-min Rain = 0
KJU1 111258Z 00000KT 24/21 A3013 RMK A01 T02360212  RH  086%=      5-min Rain = 0
KJU1 111259Z 00000KT 24/21 A3013 RMK A01 T02380211  RH  085%=      5-min Rain = 0
KJU1 111300Z 00000KT 24/21 A3013 RMK A01 T02390211  RH  084%=      5-min Rain = 0
KJU1 111301Z 00000KT 24/21 A3013 RMK A01 T02410211  RH  084%=      5-min Rain = 0
KJU1 111302Z 00000KT 24/21 A3013 RMK A01 T02430212  RH  083%=      5-min Rain = 0
KJU1 111303Z 18000KT 24/21 A3013 RMK A01 T02440211  RH  082%=      5-min Rain = 0
KJU1 111304Z 23001KT 25/21 A3013 RMK A01 T02450211  RH  081%=      5-min Rain = 0
KJU1 111305Z 00000KT 25/21 A3013 RMK A01 T02450210  RH  081%=      5-min Rain = 0
KJU1 111306Z 20000KT 24/21 A3013 RMK A01 T02440209  RH  081%=      5-min Rain = 0
KJU1 111307Z 19002KT 24/21 A3013 RMK A01 T02440209  RH  081%=      5-min Rain = 0
KJU1 111308Z 21001KT 24/21 A3013 RMK A01 T02430208  RH  081%=      5-min Rain = 0
KJU1 111309Z 19001KT 24/21 A3013 RMK A01 T02420209  RH  082%=      5-min Rain = 0
KJU1 111310Z 19002KT 24/21 A3013 RMK A01 T02420209  RH  082%=      5-min Rain = 0
KJU1 111311Z 20002KT 24/21 A3013 RMK A01 T02410208  RH  082%=      5-min Rain = 0
KJU1 111312Z 21002KT 24/21 A3013 RMK A01 T02400208  RH  082%=      5-min Rain = 0
KJU1 111313Z 22001KT 24/21 A3013 RMK A01 T02390208  RH  082%=      5-min Rain = 0
KJU1 111314Z 21002KT 24/21 A3013 RMK A01 T02390208  RH  083%=      5-min Rain = 0
KJU1 111315Z 22002KT 24/21 A3013 RMK A01 T02390207  RH  083%=      5-min Rain = 0
KJU1 111316Z 22003KT 24/21 A3013 RMK A01 T02380208  RH  083%=      5-min Rain = 0
KJU1 111317Z 23003KT 24/21 A3013 RMK A01 T02380208  RH  083%=      5-min Rain = 0
KJU1 111318Z 22003KT 24/21 A3013 RMK A01 T02380208  RH  083%=      5-min Rain = 0
KJU1 111319Z 21003KT 24/21 A3013 RMK A01 T02380208  RH  083%=      5-min Rain = 0
KJU1 111320Z 19003KT 24/21 A3013 RMK A01 T02390208  RH  083%=      5-min Rain = 0
KJU1 111321Z 21003KT 24/21 A3013 RMK A01 T02390209  RH  083%=      5-min Rain = 0
KJU1 111322Z 23003KT 24/21 A3013 RMK A01 T02400209  RH  083%=      5-min Rain = 0
KJU1 111323Z 22002KT 24/21 A3013 RMK A01 T02400209  RH  083%=      5-min Rain = 0
KJU1 111324Z 23003KT 24/21 A3013 RMK A01 T02400209  RH  083%=      5-min Rain = 0
KJU1 111325Z 22002KT 24/21 A3013 RMK A01 T02410210  RH  083%=      5-min Rain = 0
KJU1 111326Z 21003KT 24/21 A3013 RMK A01 T02420210  RH  083%=      5-min Rain = 0
KJU1 111327Z 21003KT 24/21 A3013 RMK A01 T02420209  RH  082%=      5-min Rain = 0
KJU1 111328Z 21003KT 24/21 A3013 RMK A01 T02420209  RH  082%=      5-min Rain = 0
KJU1 111329Z 22002KT 24/21 A3013 RMK A01 T02420209  RH  082%=      5-min Rain = 0
KJU1 111330Z 21003KT 24/21 A3013 RMK A01 T02420209  RH  082%=      5-min Rain = 0
KJU1 111331Z 20002KT 24/21 A3013 RMK A01 T02420210  RH  082%=      5-min Rain = 0
KJU1 111332Z 19002KT 24/21 A3013 RMK A01 T02430210  RH  082%=      5-min Rain = 0
KJU1 111333Z 21003KT 24/21 A3013 RMK A01 T02440212  RH  082%=      5-min Rain = 0
KJU1 111334Z 22004KT 25/21 A3013 RMK A01 T02470212  RH  081%=      5-min Rain = 0
KJU1 111335Z 21004KT 25/21 A3013 RMK A01 T02460211  RH  080%=      5-min Rain = 0
KJU1 111336Z 22004KT 25/21 A3013 RMK A01 T02460210  RH  081%=      5-min Rain = 0
KJU1 111337Z 22003KT 25/21 A3014 RMK A01 T02460210  RH  081%=      5-min Rain = 0
KJU1 111338Z 18002KT 25/21 A3014 RMK A01 T02460210  RH  080%=      5-min Rain = 0
KJU1 111339Z 21001KT 25/21 A3014 RMK A01 T02460211  RH  081%=      5-min Rain = 0
KJU1 111340Z 19002KT 25/21 A3014 RMK A01 T02470212  RH  081%=      5-min Rain = 0
KJU1 111341Z 20003KT 25/21 A3014 RMK A01 T02490212  RH  080%=      5-min Rain = 0
KJU1 111342Z 21002KT 25/21 A3014 RMK A01 T02500213  RH  080%=      5-min Rain = 0
KJU1 111343Z 20002KT 25/21 A3014 RMK A01 T02520213  RH  079%=      5-min Rain = 0
KJU1 111344Z 23001KT 25/21 A3014 RMK A01 T02520212  RH  078%=      5-min Rain = 0
KJU1 111345Z 21002KT 25/21 A3014 RMK A01 T02530211  RH  078%=      5-min Rain = 0
KJU1 111346Z 20002KT 25/21 A3014 RMK A01 T02530210  RH  077%=      5-min Rain = 0
KJU1 111347Z 20003KT 25/21 A3014 RMK A01 T02530211  RH  078%=      5-min Rain = 0
KJU1 111348Z 19004KT 25/21 A3014 RMK A01 T02530211  RH  077%=      5-min Rain = 0
KJU1 111349Z 20003KT 25/21 A3014 RMK A01 T02530210  RH  077%=      5-min Rain = 0
KJU1 111350Z 19003KT 25/21 A3014 RMK A01 T02530211  RH  077%=      5-min Rain = 0
KJU1 111351Z 20004KT 25/21 A3014 RMK A01 T02530212  RH  078%=      5-min Rain = 0
KJU1 111352Z 21004KT 25/21 A3014 RMK A01 T02540211  RH  077%=      5-min Rain = 0
KJU1 111353Z 22003KT 25/21 A3014 RMK A01 T02540211  RH  077%=      5-min Rain = 0
KJU1 111354Z 21002KT 25/21 A3014 RMK A01 T02540211  RH  077%=      5-min Rain = 0
KJU1 111355Z 19000KT 25/21 A3014 RMK A01 T02540212  RH  077%=      5-min Rain = 0
KJU1 111356Z 19002KT 26/21 A3014 RMK A01 T02560212  RH  077%=      5-min Rain = 0
KJU1 111357Z 18003KT 26/21 A3014 RMK A01 T02580211  RH  075%=      5-min Rain = 0
KJU1 111358Z 19004KT 26/21 A3014 RMK A01 T02580212  RH  076%=      5-min Rain = 0
KJU1 111359Z 21004KT 26/21 A3014 RMK A01 T02590212  RH  075%=      5-min Rain = 0
KJU1 111400Z 20003KT 26/21 A3014 RMK A01 T02600211  RH  075%=      5-min Rain = 0
KJU1 111401Z 20006KT 26/21 A3014 RMK A01 T02590212  RH  075%=      5-min Rain = 0
KJU1 111402Z 20005KT 26/21 A3014 RMK A01 T02600211  RH  075%=      5-min Rain = 0
KJU1 111403Z 19005KT 26/21 A3014 RMK A01 T02600211  RH  074%=      5-min Rain = 0
KJU1 111404Z 20005KT 26/21 A3014 RMK A01 T02600211  RH  074%=      5-min Rain = 0
KJU1 111405Z 20007KT 26/21 A3014 RMK A01 T02600211  RH  075%=      5-min Rain = 0
KJU1 111406Z 21006KT 26/21 A3014 RMK A01 T02600211  RH  074%=      5-min Rain = 0
KJU1 111407Z 21005KT 26/21 A3014 RMK A01 T02600211  RH  074%=      5-min Rain = 0
KJU1 111408Z 21005KT 26/21 A3014 RMK A01 T02610211  RH  074%=      5-min Rain = 0
KJU1 111409Z 21004KT 26/21 A3014 RMK A01 T02610211  RH  074%=      5-min Rain = 0
KJU1 111410Z 20004KT 26/21 A3015 RMK A01 T02630212  RH  073%=      5-min Rain = 0
KJU1 111411Z 20006KT 26/21 A3015 RMK A01 T02640212  RH  073%=      5-min Rain = 0
KJU1 111412Z 20007KT 27/21 A3015 RMK A01 T02650210  RH  072%=      5-min Rain = 0
KJU1 111413Z 20005KT 27/21 A3015 RMK A01 T02650210  RH  072%=      5-min Rain = 0
KJU1 111414Z 20005KT 26/21 A3015 RMK A01 T02640211  RH  072%=      5-min Rain = 0
KJU1 111415Z 19004KT 27/21 A3014 RMK A01 T02650210  RH  072%=      5-min Rain = 0
KJU1 111416Z 19004KT 27/21 A3014 RMK A01 T02650209  RH  071%=      5-min Rain = 0
KJU1 111417Z 22005KT 27/21 A3014 RMK A01 T02660210  RH  071%=      5-min Rain = 0
KJU1 111418Z 22006KT 27/21 A3014 RMK A01 T02660211  RH  072%=      5-min Rain = 0
KJU1 111419Z 21004KT 27/21 A3014 RMK A01 T02660211  RH  072%=      5-min Rain = 0
KJU1 111420Z 22004KT 27/21 A3014 RMK A01 T02660213  RH  072%=      5-min Rain = 0
KJU1 111421Z 24003KT 27/21 A3014 RMK A01 T02680214  RH  073%=      5-min Rain = 0
KJU1 111422Z 23005KT 27/21 A3014 RMK A01 T02700213  RH  071%=      5-min Rain = 0
KJU1 111423Z 23006KT 27/21 A3014 RMK A01 T02700212  RH  071%=      5-min Rain = 0
KJU1 111424Z 22004KT 27/21 A3014 RMK A01 T02690212  RH  071%=      5-min Rain = 0
KJU1 111425Z 21004KT 27/21 A3014 RMK A01 T02690211  RH  071%=      5-min Rain = 0
KJU1 111426Z 23004KT 27/21 A3014 RMK A01 T02690211  RH  070%=      5-min Rain = 0
KJU1 111427Z 24004KT 27/21 A3014 RMK A01 T02700210  RH  070%=      5-min Rain = 0
KJU1 111428Z 22005KT 27/21 A3014 RMK A01 T02700211  RH  070%=      5-min Rain = 0
KJU1 111429Z 19005KT 27/21 A3014 RMK A01 T02710211  RH  070%=      5-min Rain = 0
KJU1 111430Z 19005KT 27/21 A3014 RMK A01 T02710209  RH  068%=      5-min Rain = 0
KJU1 111431Z 21005KT 27/21 A3014 RMK A01 T02720210  RH  069%=      5-min Rain = 0
KJU1 111432Z 22005KT 27/21 A3014 RMK A01 T02720211  RH  069%=      5-min Rain = 0
KJU1 111433Z 23006KT 27/21 A3014 RMK A01 T02720211  RH  069%=      5-min Rain = 0
KJU1 111434Z 23007KT 27/21 A3014 RMK A01 T02720211  RH  069%=      5-min Rain = 0
KJU1 111435Z 22007KT 27/21 A3014 RMK A01 T02720210  RH  069%=      5-min Rain = 0
KJU1 111436Z 23006KT 27/21 A3014 RMK A01 T02710209  RH  069%=      5-min Rain = 0
KJU1 111437Z 23005KT 27/21 A3014 RMK A01 T02700209  RH  069%=      5-min Rain = 0
KJU1 111438Z 23004KT 27/21 A3014 RMK A01 T02710210  RH  069%=      5-min Rain = 0
KJU1 111439Z 21004KT 27/21 A3014 RMK A01 T02720210  RH  069%=      5-min Rain = 0
KJU1 111440Z 22006KT 27/21 A3014 RMK A01 T02730210  RH  069%=      5-min Rain = 0
KJU1 111441Z 21007KT 27/21 A3014 RMK A01 T02730209  RH  068%=      5-min Rain = 0
KJU1 111442Z 21008KT 27/21 A3014 RMK A01 T02730209  RH  068%=      5-min Rain = 0
KJU1 111443Z 22008KT 27/21 A3014 RMK A01 T02740208  RH  067%=      5-min Rain = 0
KJU1 111444Z 22006KT 27/21 A3014 RMK A01 T02740208  RH  067%=      5-min Rain = 0
KJU1 111445Z 21006KT 27/21 A3014 RMK A01 T02730209  RH  068%=      5-min Rain = 0
KJU1 111446Z 20005KT 27/21 A3014 RMK A01 T02730209  RH  068%=      5-min Rain = 0
KJU1 111447Z 22005KT 27/21 A3014 RMK A01 T02740211  RH  068%=      5-min Rain = 0
KJU1 111448Z 22005KT 28/21 A3014 RMK A01 T02760210  RH  067%=      5-min Rain = 0
KJU1 111449Z 23006KT 28/21 A3014 RMK A01 T02760210  RH  067%=      5-min Rain = 0
KJU1 111450Z 20005KT 28/21 A3014 RMK A01 T02760210  RH  067%=      5-min Rain = 0
KJU1 111451Z 21006KT 28/21 A3014 RMK A01 T02760209  RH  067%=      5-min Rain = 0
KJU1 111452Z 21004KT 28/21 A3014 RMK A01 T02760210  RH  067%=      5-min Rain = 0
KJU1 111453Z 24003KT 28/21 A3014 RMK A01 T02760210  RH  068%=      5-min Rain = 0
KJU1 111454Z 22008KT 28/21 A3014 RMK A01 T02780211  RH  067%=      5-min Rain = 0
KJU1 111455Z 22006KT 28/21 A3014 RMK A01 T02770209  RH  066%=      5-min Rain = 0
KJU1 111456Z 26004KT 28/21 A3014 RMK A01 T02760210  RH  067%=      5-min Rain = 0
KJU1 111457Z 22006KT 28/21 A3014 RMK A01 T02760211  RH  068%=      5-min Rain = 0
KJU1 111458Z 22007KT 28/21 A3014 RMK A01 T02770207  RH  066%=      5-min Rain = 0
KJU1 111459Z 21007KT 28/21 A3014 RMK A01 T02770208  RH  066%=      5-min Rain = 0
KJU1 111500Z 21007KT 28/21 A3014 RMK A01 T02780210  RH  066%=      5-min Rain = 0
KJU1 111501Z 21006KT 28/21 A3014 RMK A01 T02790210  RH  066%=      5-min Rain = 0
KJU1 111502Z 21006KT 28/21 A3013 RMK A01 T02790211  RH  067%=      5-min Rain = 0
KJU1 111503Z 24006KT 28/21 A3013 RMK A01 T02780211  RH  067%=      5-min Rain = 0
KJU1 111504Z 24005KT 28/21 A3013 RMK A01 T02790211  RH  067%=      5-min Rain = 0
KJU1 111505Z 22005KT 28/21 A3014 RMK A01 T02800211  RH  066%=      5-min Rain = 0
KJU1 111506Z 21006KT 28/21 A3014 RMK A01 T02820210  RH  065%=      5-min Rain = 0
KJU1 111507Z 21007KT 28/21 A3014 RMK A01 T02830208  RH  064%=      5-min Rain = 0
KJU1 111508Z 19009KT 28/21 A3014 RMK A01 T02830205  RH  063%=      5-min Rain = 0
KJU1 111509Z 18007KT 28/20 A3013 RMK A01 T02820203  RH  062%=      5-min Rain = 0
KJU1 111510Z 19008KT 28/21 A3013 RMK A01 T02810206  RH  063%=      5-min Rain = 0
KJU1 111511Z 19008KT 28/21 A3013 RMK A01 T02820208  RH  064%=      5-min Rain = 0
KJU1 111512Z 20007KT 29/21 A3014 RMK A01 T02850210  RH  064%=      5-min Rain = 0
KJU1 111513Z 22006KT 28/21 A3014 RMK A01 T02840210  RH  064%=      5-min Rain = 0
KJU1 111514Z 23006KT 28/21 A3014 RMK A01 T02830209  RH  064%=      5-min Rain = 0
KJU1 111515Z 22004KT 28/21 A3014 RMK A01 T02810209  RH  065%=      5-min Rain = 0
KJU1 111516Z 24004KT 28/21 A3014 RMK A01 T02810211  RH  065%=      5-min Rain = 0
KJU1 111517Z 23007KT 28/21 A3014 RMK A01 T02830210  RH  065%=      5-min Rain = 0
KJU1 111518Z 22007KT 28/21 A3014 RMK A01 T02840209  RH  064%=      5-min Rain = 0
KJU1 111519Z 23005KT 29/21 A3014 RMK A01 T02850211  RH  064%=      5-min Rain = 0
KJU1 111520Z 24006KT 29/21 A3014 RMK A01 T02850209  RH  063%=      5-min Rain = 0
KJU1 111521Z 19006KT 29/21 A3014 RMK A01 T02850208  RH  063%=      5-min Rain = 0
KJU1 111522Z 19006KT 29/21 A3014 RMK A01 T02860206  RH  062%=      5-min Rain = 0
KJU1 111523Z 19007KT 29/20 A3014 RMK A01 T02880204  RH  060%=      5-min Rain = 0
KJU1 111524Z 18007KT 29/20 A3014 RMK A01 T02890200  RH  059%=      5-min Rain = 0
KJU1 111525Z 19008KT 29/20 A3014 RMK A01 T02910201  RH  058%=      5-min Rain = 0
KJU1 111526Z 20008KT 29/20 A3014 RMK A01 T02910200  RH  058%=      5-min Rain = 0
KJU1 111527Z 20008KT 29/20 A3014 RMK A01 T02900200  RH  059%=      5-min Rain = 0
KJU1 111528Z 20008KT 29/20 A3014 RMK A01 T02900200  RH  058%=      5-min Rain = 0
KJU1 111529Z 19008KT 29/20 A3014 RMK A01 T02900200  RH  058%=      5-min Rain = 0
KJU1 111530Z 19009KT 29/20 A3014 RMK A01 T02910199  RH  057%=      5-min Rain = 0
KJU1 111531Z 19007KT 29/20 A3014 RMK A01 T02910200  RH  058%=      5-min Rain = 0
KJU1 111532Z 20007KT 29/20 A3013 RMK A01 T02910200  RH  058%=      5-min Rain = 0
KJU1 111533Z 21007KT 29/20 A3014 RMK A01 T02910201  RH  058%=      5-min Rain = 0
KJU1 111534Z 22003KT 29/20 A3013 RMK A01 T02900202  RH  059%=      5-min Rain = 0
KJU1 111535Z 22004KT 29/20 A3013 RMK A01 T02910203  RH  059%=      5-min Rain = 0
KJU1 111536Z 18003KT 29/20 A3013 RMK A01 T02920202  RH  058%=      5-min Rain = 0
KJU1 111537Z 20004KT 29/20 A3013 RMK A01 T02930203  RH  058%=      5-min Rain = 0
KJU1 111538Z 20005KT 29/20 A3013 RMK A01 T02940203  RH  058%=      5-min Rain = 0
KJU1 111539Z 20007KT 29/20 A3013 RMK A01 T02930201  RH  057%=      5-min Rain = 0
KJU1 111540Z 14006KT 29/20 A3013 RMK A01 T02930199  RH  057%=      5-min Rain = 0
KJU1 111541Z 18009G14KT 29/20 A3013 RMK A01 T02940199  RH  056%=      5-min Rain = 0
KJU1 111542Z 16006KT 30/20 A3013 RMK A01 T02970201  RH  056%=      5-min Rain = 0
KJU1 111543Z 14007KT 30/20 A3013 RMK A01 T02990198  RH  055%=      5-min Rain = 0
KJU1 111544Z 15006KT 30/20 A3013 RMK A01 T02990197  RH  054%=      5-min Rain = 0
KJU1 111545Z 15010KT 30/20 A3013 RMK A01 T02990196  RH  054%=      5-min Rain = 0
KJU1 111546Z 16010KT 30/19 A3013 RMK A01 T02980193  RH  053%=      5-min Rain = 0
KJU1 111547Z 17007KT 30/19 A3013 RMK A01 T02960192  RH  053%=      5-min Rain = 0
KJU1 111548Z 20007KT 30/19 A3013 RMK A01 T02950194  RH  055%=      5-min Rain = 0
KJU1 111549Z 16005KT 30/20 A3013 RMK A01 T02950197  RH  056%=      5-min Rain = 0
KJU1 111550Z 15004KT 30/20 A3013 RMK A01 T02980198  RH  055%=      5-min Rain = 0
KJU1 111551Z 14007KT 30/20 A3013 RMK A01 T03000196  RH  054%=      5-min Rain = 0
KJU1 111552Z 16006KT 30/19 A3013 RMK A01 T02990194  RH  053%=      5-min Rain = 0
KJU1 111553Z 20006KT 30/19 A3013 RMK A01 T02980194  RH  054%=      5-min Rain = 0
KJU1 111554Z 22005KT 30/20 A3013 RMK A01 T02970195  RH  054%=      5-min Rain = 0
KJU1 111555Z 19004KT 30/19 A3013 RMK A01 T02970192  RH  053%=      5-min Rain = 0
KJU1 111556Z 18004KT 30/19 A3013 RMK A01 T02970190  RH  053%=      5-min Rain = 0
KJU1 111557Z 22004KT 30/19 A3013 RMK A01 T02980190  RH  052%=      5-min Rain = 0
KJU1 111558Z 22008KT 30/19 A3013 RMK A01 T02990193  RH  053%=      5-min Rain = 0
KJU1 111559Z 20007KT 30/19 A3013 RMK A01 T03000193  RH  053%=      5-min Rain = 0
KJU1 111600Z 20008KT 30/19 A3013 RMK A01 T03000193  RH  053%=      5-min Rain = 0
KJU1 111601Z 21009KT 30/19 A3013 RMK A01 T02990192  RH  053%=      5-min Rain = 0
KJU1 111602Z 23008KT 30/19 A3013 RMK A01 T02980192  RH  053%=      5-min Rain = 0
KJU1 111603Z 21009KT 30/19 A3013 RMK A01 T02980193  RH  053%=      5-min Rain = 0
KJU1 111604Z 14006KT 30/19 A3013 RMK A01 T02990194  RH  053%=      5-min Rain = 0
KJU1 111605Z 14007KT 30/19 A3013 RMK A01 T03010192  RH  052%=      5-min Rain = 0
KJU1 111606Z 16005KT 30/19 A3013 RMK A01 T03030193  RH  052%=      5-min Rain = 0
KJU1 111607Z 20005KT 30/19 A3013 RMK A01 T03040190  RH  051%=      5-min Rain = 0
KJU1 111608Z 20008KT 30/19 A3013 RMK A01 T03040187  RH  050%=      5-min Rain = 0
KJU1 111609Z 21007KT 30/19 A3013 RMK A01 T03030189  RH  051%=      5-min Rain = 0
KJU1 111610Z 21007KT 30/19 A3013 RMK A01 T03020186  RH  050%=      5-min Rain = 0
KJU1 111611Z 21005KT 30/18 A3013 RMK A01 T03020183  RH  049%=      5-min Rain = 0
KJU1 111612Z 21005KT 30/18 A3013 RMK A01 T03010183  RH  049%=      5-min Rain = 0
KJU1 111613Z 23005KT 30/18 A3013 RMK A01 T03010184  RH  050%=      5-min Rain = 0
KJU1 111614Z 21005KT 30/19 A3013 RMK A01 T03020186  RH  050%=      5-min Rain = 0
KJU1 111615Z 21008KT 30/19 A3013 RMK A01 T03040186  RH  049%=      5-min Rain = 0
KJU1 111616Z 22006KT 30/19 A3013 RMK A01 T03020187  RH  050%=      5-min Rain = 0
KJU1 111617Z 23007KT 30/19 A3013 RMK A01 T03040191  RH  051%=      5-min Rain = 0
KJU1 111618Z 20009KT 31/19 A3013 RMK A01 T03070190  RH  050%=      5-min Rain = 0
KJU1 111619Z 21008KT 31/19 A3013 RMK A01 T03080189  RH  049%=      5-min Rain = 0
KJU1 111620Z 20006KT 31/19 A3013 RMK A01 T03070188  RH  049%=      5-min Rain = 0
KJU1 111621Z 19004KT 30/19 A3013 RMK A01 T03040189  RH  050%=      5-min Rain = 0
KJU1 111622Z 23006KT 31/19 A3013 RMK A01 T03060190  RH  050%=      5-min Rain = 0
KJU1 111623Z 23007KT 31/19 A3013 RMK A01 T03080188  RH  049%=      5-min Rain = 0
KJU1 111624Z 24006KT 31/19 A3013 RMK A01 T03070187  RH  049%=      5-min Rain = 0
KJU1 111625Z 21005KT 31/19 A3013 RMK A01 T03070189  RH  049%=      5-min Rain = 0
KJU1 111626Z 21004KT 31/19 A3013 RMK A01 T03100192  RH  050%=      5-min Rain = 0
KJU1 111627Z 23004KT 31/19 A3013 RMK A01 T03130192  RH  048%=      5-min Rain = 0
KJU1 111628Z 21004KT 31/19 A3013 RMK A01 T03140187  RH  047%=      5-min Rain = 0
KJU1 111629Z 19004KT 31/19 A3013 RMK A01 T03120187  RH  047%=      5-min Rain = 0
KJU1 111630Z 18006KT 31/19 A3013 RMK A01 T03120186  RH  047%=      5-min Rain = 0
KJU1 111631Z 16005G10KT 31/18 A3013 RMK A01 T03120184  RH  047%=      5-min Rain = 0
KJU1 111632Z 19010KT 31/19 A3013 RMK A01 T03120187  RH  047%=      5-min Rain = 0
KJU1 111633Z 19007KT 31/19 A3013 RMK A01 T03110185  RH  047%=      5-min Rain = 0
KJU1 111634Z 20005KT 31/18 A3013 RMK A01 T03100183  RH  047%=      5-min Rain = 0
KJU1 111635Z 20005KT 31/18 A3013 RMK A01 T03090182  RH  047%=      5-min Rain = 0
KJU1 111636Z 20006KT 31/19 A3013 RMK A01 T03100185  RH  047%=      5-min Rain = 0
KJU1 111637Z 21007KT 31/18 A3013 RMK A01 T03130182  RH  046%=      5-min Rain = 0
KJU1 111638Z 19006KT 31/18 A3013 RMK A01 T03120183  RH  046%=      5-min Rain = 0
KJU1 111639Z 18009KT 31/18 A3013 RMK A01 T03130181  RH  045%=      5-min Rain = 0
KJU1 111640Z 18007KT 31/18 A3013 RMK A01 T03130179  RH  045%=      5-min Rain = 0
KJU1 111641Z 19006KT 31/18 A3013 RMK A01 T03110179  RH  045%=      5-min Rain = 0
KJU1 111642Z 18006KT 31/18 A3013 RMK A01 T03090181  RH  046%=      5-min Rain = 0
KJU1 111643Z 20005KT 31/18 A3013 RMK A01 T03100183  RH  047%=      5-min Rain = 0
KJU1 111644Z 20007KT 31/18 A3013 RMK A01 T03120183  RH  046%=      5-min Rain = 0
KJU1 111645Z 20003KT 31/18 A3013 RMK A01 T03130182  RH  046%=      5-min Rain = 0
KJU1 111646Z 21002KT 31/18 A3013 RMK A01 T03130182  RH  046%=      5-min Rain = 0
KJU1 111647Z 16003KT 31/18 A3013 RMK A01 T03140184  RH  046%=      5-min Rain = 0
KJU1 111648Z 22005KT 32/18 A3013 RMK A01 T03150183  RH  045%=      5-min Rain = 0
KJU1 111649Z 21007KT 32/18 A3013 RMK A01 T03160181  RH  045%=      5-min Rain = 0
KJU1 111650Z 19006KT 32/18 A3013 RMK A01 T03160182  RH  045%=      5-min Rain = 0
KJU1 111651Z 19008KT 32/18 A3013 RMK A01 T03160180  RH  044%=      5-min Rain = 0
KJU1 111652Z 20007KT 32/18 A3013 RMK A01 T03150179  RH  044%=      5-min Rain = 0
KJU1 111653Z 19005KT 32/18 A3013 RMK A01 T03160180  RH  045%=      5-min Rain = 0
KJU1 111654Z 22008KT 32/18 A3013 RMK A01 T03180181  RH  044%=      5-min Rain = 0
KJU1 111655Z 20008KT 32/18 A3013 RMK A01 T03200183  RH  044%=      5-min Rain = 0
KJU1 111656Z 20007KT 32/18 A3013 RMK A01 T03190182  RH  044%=      5-min Rain = 0
KJU1 111657Z 17008KT 32/18 A3013 RMK A01 T03170180  RH  044%=      5-min Rain = 0
KJU1 111658Z 21007KT 32/18 A3013 RMK A01 T03180177  RH  043%=      5-min Rain = 0
KJU1 111659Z 19006KT 32/18 A3013 RMK A01 T03170176  RH  043%=      5-min Rain = 0
KJU1 111700Z 20007KT 32/18 A3013 RMK A01 T03180178  RH  043%=      5-min Rain = 0
KJU1 111701Z 20007KT 32/18 A3013 RMK A01 T03180176  RH  043%=      5-min Rain = 0
KJU1 111702Z 19006KT 32/17 A3012 RMK A01 T03150174  RH  043%=      5-min Rain = 0
KJU1 111703Z 19006KT 31/18 A3012 RMK A01 T03140178  RH  044%=      5-min Rain = 0
KJU1 111704Z 17007KT 32/18 A3012 RMK A01 T03150180  RH  045%=      5-min Rain = 0
KJU1 111705Z 18007KT 32/18 A3012 RMK A01 T03180184  RH  045%=      5-min Rain = 0
KJU1 111706Z 14006KT 32/19 A3012 RMK A01 T03200187  RH  045%=      5-min Rain = 0
KJU1 111707Z 14008KT 32/19 A3012 RMK A01 T03230185  RH  044%=      5-min Rain = 0
KJU1 111708Z 13005KT 32/18 A3012 RMK A01 T03230183  RH  043%=      5-min Rain = 0
KJU1 111709Z 14005KT 32/18 A3012 RMK A01 T03220181  RH  043%=      5-min Rain = 0
KJU1 111710Z 11004KT 32/18 A3012 RMK A01 T03210179  RH  043%=      5-min Rain = 0
KJU1 111711Z 10005KT 32/18 A3012 RMK A01 T03220181  RH  043%=      5-min Rain = 0
KJU1 111712Z 12004KT 32/18 A3012 RMK A01 T03240177  RH  042%=      5-min Rain = 0
KJU1 111713Z 16005KT 32/18 A3012 RMK A01 T03230180  RH  043%=      5-min Rain = 0
KJU1 111714Z 16007G14KT 32/17 A3012 RMK A01 T03230173  RH  041%=      5-min Rain = 0
KJU1 111715Z 20008G14KT 33/18 A3012 RMK A01 T03250176  RH  041%=      5-min Rain = 0
KJU1 111716Z 21007KT 33/18 A3012 RMK A01 T03260177  RH  041%=      5-min Rain = 0
KJU1 111717Z 18009KT 33/18 A3012 RMK A01 T03280176  RH  040%=      5-min Rain = 0
KJU1 111718Z 19005KT 33/18 A3012 RMK A01 T03280176  RH  041%=      5-min Rain = 0
KJU1 111719Z 20005KT 33/18 A3012 RMK A01 T03280176  RH  040%=      5-min Rain = 0
KJU1 111720Z 19008KT 33/18 A3012 RMK A01 T03300178  RH  040%=      5-min Rain = 0
KJU1 111721Z 19009KT 33/18 A3012 RMK A01 T03330176  RH  039%=      5-min Rain = 0
KJU1 111722Z 20006KT 33/17 A3012 RMK A01 T03290171  RH  039%=      5-min Rain = 0
KJU1 111723Z 20008KT 33/17 A3012 RMK A01 T03250173  RH  040%=      5-min Rain = 0
KJU1 111724Z 21007KT 32/18 A3012 RMK A01 T03220176  RH  042%=      5-min Rain = 0
KJU1 111725Z 22005KT 32/18 A3012 RMK A01 T03200178  RH  043%=      5-min Rain = 0
KJU1 111726Z 22004KT 32/18 A3012 RMK A01 T03200181  RH  044%=      5-min Rain = 0
KJU1 111727Z 18005KT 32/18 A3012 RMK A01 T03210181  RH  044%=      5-min Rain = 0
KJU1 111728Z 20005KT 32/18 A3012 RMK A01 T03230183  RH  043%=      5-min Rain = 0
KJU1 111729Z 20006KT 32/18 A3012 RMK A01 T03230181  RH  043%=      5-min Rain = 0
KJU1 111730Z 24005G10KT 32/18 A3012 RMK A01 T03210178  RH  043%=      5-min Rain = 0
KJU1 111731Z 29003KT 32/18 A3012 RMK A01 T03200177  RH  043%=      5-min Rain = 0
KJU1 111732Z 29003KT 32/18 A3012 RMK A01 T03190178  RH  043%=      5-min Rain = 0
KJU1 111733Z 25004KT 32/18 A3012 RMK A01 T03220179  RH  043%=      5-min Rain = 0
KJU1 111734Z 22005KT 32/18 A3011 RMK A01 T03230176  RH  042%=      5-min Rain = 0
KJU1 111735Z 19008KT 32/18 A3011 RMK A01 T03240177  RH  042%=      5-min Rain = 0
KJU1 111736Z 17009KT 33/18 A3011 RMK A01 T03280178  RH  041%=      5-min Rain = 0
KJU1 111737Z 16010KT 33/18 A3012 RMK A01 T03280178  RH  041%=      5-min Rain = 0
KJU1 111738Z 17008KT 33/18 A3012 RMK A01 T03280176  RH  041%=      5-min Rain = 0
KJU1 111739Z 19006KT 33/18 A3012 RMK A01 T03260176  RH  041%=      5-min Rain = 0
KJU1 111740Z 22003KT 32/18 A3012 RMK A01 T03240175  RH  041%=      5-min Rain = 0
KJU1 111741Z 26003KT 32/18 A3011 RMK A01 T03220175  RH  041%=      5-min Rain = 0
KJU1 111742Z 23001KT 32/17 A3011 RMK A01 T03210173  RH  041%=      5-min Rain = 0
KJU1 111743Z 19003KT 32/18 A3011 RMK A01 T03230178  RH  042%=      5-min Rain = 0
KJU1 111744Z 16007KT 33/18 A3011 RMK A01 T03260176  RH  041%=      5-min Rain = 0
KJU1 111745Z 15008KT 33/17 A3011 RMK A01 T03270171  RH  039%=      5-min Rain = 0
KJU1 111746Z 15006KT 33/17 A3011 RMK A01 T03270170  RH  039%=      5-min Rain = 0
KJU1 111747Z 15004KT 33/17 A3011 RMK A01 T03270171  RH  039%=      5-min Rain = 0
KJU1 111748Z 12003KT 33/17 A3011 RMK A01 T03270169  RH  039%=      5-min Rain = 0
KJU1 111749Z 12003KT 33/17 A3011 RMK A01 T03260171  RH  040%=      5-min Rain = 0
KJU1 111750Z 19005KT 33/18 A3011 RMK A01 T03270175  RH  040%=      5-min Rain = 0
KJU1 111751Z 20007KT 33/18 A3011 RMK A01 T03320175  RH  039%=      5-min Rain = 0
KJU1 111752Z 21003KT 33/17 A3011 RMK A01 T03300174  RH  039%=      5-min Rain = 0
KJU1 111753Z 20005KT 33/17 A3011 RMK A01 T03290173  RH  039%=      5-min Rain = 0
KJU1 111754Z 21007KT 33/17 A3011 RMK A01 T03280174  RH  040%=      5-min Rain = 0
KJU1 111755Z 17007KT 33/17 A3011 RMK A01 T03280173  RH  039%=      5-min Rain = 0
KJU1 111756Z 17011KT 33/17 A3011 RMK A01 T03290170  RH  039%=      5-min Rain = 0
KJU1 111757Z 17011KT 33/17 A301 RMK A01 T03300171  RH  039%=      5-min Rain = 0
KJU1 111758Z 18010KT 33/17 A301 RMK A01 T03320171  RH  038%=      5-min Rain = 0
KJU1 111759Z 19009KT 33/17 A301 RMK A01 T03320170  RH  038%=      5-min Rain = 0
KJU1 111800Z 20007KT 33/17 A301 RMK A01 T03300171  RH  039%=      5-min Rain = 0
KJU1 111801Z 21006KT 33/17 A301 RMK A01 T03280171  RH  039%=      5-min Rain = 0
KJU1 111802Z 18004KT 33/17 A301 RMK A01 T03270168  RH  039%=      5-min Rain = 0
KJU1 111803Z 18004KT 33/17 A301 RMK A01 T03270167  RH  038%=      5-min Rain = 0
KJU1 111804Z 19002KT 33/17 A301 RMK A01 T03270165  RH  038%=      5-min Rain = 0
KJU1 111805Z 20003KT 33/17 A301 RMK A01 T03270168  RH  039%=      5-min Rain = 0
KJU1 111806Z 16005KT 33/17 A301 RMK A01 T03280169  RH  038%=      5-min Rain = 0
KJU1 111807Z 13002KT 33/17 A301 RMK A01 T03290170  RH  039%=      5-min Rain = 0
KJU1 111808Z 28000KT 33/17 A301 RMK A01 T03290172  RH  039%=      5-min Rain = 0
KJU1 111809Z 17004KT 33/17 A301 RMK A01 T03300174  RH  039%=      5-min Rain = 0
KJU1 111810Z 14004KT 33/17 A301 RMK A01 T03290173  RH  039%=      5-min Rain = 0
KJU1 111811Z 11003G8KT 33/17 A301 RMK A01 T03270172  RH  040%=      5-min Rain = 0
KJU1 111812Z 13007KT 33/17 A301 RMK A01 T03280171  RH  039%=      5-min Rain = 0
KJU1 111813Z 12010KT 33/17 A301 RMK A01 T03340167  RH  037%=      5-min Rain = 0
KJU1 111814Z 11008KT 34/16 A301 RMK A01 T03350164  RH  036%=      5-min Rain = 0
KJU1 111815Z 11009KT 33/17 A301 RMK A01 T03340166  RH  037%=      5-min Rain = 0
KJU1 111816Z 11007KT 33/17 A301 RMK A01 T03330168  RH  037%=      5-min Rain = 0
KJU1 111817Z 10006KT 33/17 A3009 RMK A01 T03340166  RH  037%=      5-min Rain = 0
KJU1 111818Z 07006KT 34/16 A3009 RMK A01 T03350163  RH  036%=      5-min Rain = 0
KJU1 111819Z 07007KT 33/17 A3009 RMK A01 T03340165  RH  036%=      5-min Rain = 0
KJU1 111820Z 09004KT 33/17 A3009 RMK A01 T03310167  RH  037%=      5-min Rain = 0
KJU1 111821Z 15003KT 33/17 A3009 RMK A01 T03330171  RH  038%=      5-min Rain = 0
KJU1 111822Z 09008KT 34/17 A3009 RMK A01 T03380171  RH  037%=      5-min Rain = 0
KJU1 111823Z 11011KT 34/17 A3009 RMK A01 T03390172  RH  037%=      5-min Rain = 0
KJU1 111824Z 11009KT 34/17 A3009 RMK A01 T03380174  RH  038%=      5-min Rain = 0
KJU1 111825Z 11007KT 34/17 A3009 RMK A01 T03380173  RH  037%=      5-min Rain = 0
KJU1 111826Z 14006G11KT 34/17 A3009 RMK A01 T03350171  RH  038%=      5-min Rain = 0
KJU1 111827Z 13009KT 33/17 A3009 RMK A01 T03340169  RH  037%=      5-min Rain = 0
KJU1 111828Z 11006KT 34/16 A3009 RMK A01 T03350163  RH  036%=      5-min Rain = 0
KJU1 111829Z 13005KT 34/16 A3009 RMK A01 T03360160  RH  035%=      5-min Rain = 0
KJU1 111830Z 15004KT 34/16 A3009 RMK A01 T03360158  RH  034%=      5-min Rain = 0
KJU1 111831Z 17005KT 34/16 A3009 RMK A01 T03380164  RH  035%=      5-min Rain = 0
KJU1 111832Z 15004KT 34/16 A3009 RMK A01 T03390163  RH  035%=      5-min Rain = 0
KJU1 111833Z 16006KT 34/17 A3009 RMK A01 T03380167  RH  036%=      5-min Rain = 0
KJU1 111834Z 18008KT 34/17 A3009 RMK A01 T03390168  RH  036%=      5-min Rain = 0
KJU1 111835Z 23004KT 34/17 A3008 RMK A01 T03380171  RH  037%=      5-min Rain = 0
KJU1 111836Z 27003KT 34/17 A3008 RMK A01 T03390172  RH  037%=      5-min Rain = 0
KJU1 111837Z 04001KT 34/18 A3008 RMK A01 T03410175  RH  037%=      5-min Rain = 0
KJU1 111838Z 08007KT 34/18 A3008 RMK A01 T03440176  RH  037%=      5-min Rain = 0
KJU1 111839Z 09002KT 34/17 A3008 RMK A01 T03420174  RH  037%=      5-min Rain = 0
KJU1 111840Z 19002KT 34/17 A3008 RMK A01 T03390172  RH  037%=      5-min Rain = 0
KJU1 111841Z 18003KT 34/17 A3008 RMK A01 T03380174  RH  038%=      5-min Rain = 0
KJU1 111842Z 17009G15KT 34/17 A3008 RMK A01 T03430173  RH  036%=      5-min Rain = 0
KJU1 111843Z 14006KT 35/17 A3008 RMK A01 T03460169  RH  035%=      5-min Rain = 0
KJU1 111844Z 14007KT 34/17 A3008 RMK A01 T03440168  RH  035%=      5-min Rain = 0
KJU1 111845Z 13009KT 34/17 A3008 RMK A01 T03420169  RH  036%=      5-min Rain = 0
KJU1 111846Z 13009KT 34/17 A3008 RMK A01 T03410169  RH  036%=      5-min Rain = 0
KJU1 111847Z 10004KT 34/17 A3008 RMK A01 T03360169  RH  037%=      5-min Rain = 0
KJU1 111848Z 11004KT 34/17 A3008 RMK A01 T03360170  RH  037%=      5-min Rain = 0
KJU1 111849Z 12001KT 34/17 A3008 RMK A01 T03350171  RH  038%=      5-min Rain = 0
KJU1 111850Z 30001KT 34/17 A3008 RMK A01 T03360169  RH  037%=      5-min Rain = 0
KJU1 111851Z 21003KT 34/17 A3008 RMK A01 T03360170  RH  037%=      5-min Rain = 0
KJU1 111852Z 22004KT 34/17 A3008 RMK A01 T03370168  RH  036%=      5-min Rain = 0
KJU1 111853Z 18003KT 34/17 A3008 RMK A01 T03370169  RH  037%=      5-min Rain = 0
KJU1 111854Z 18003KT 34/17 A3008 RMK A01 T03380169  RH  037%=      5-min Rain = 0
KJU1 111855Z 21000KT 34/17 A3008 RMK A01 T03370168  RH  037%=      5-min Rain = 0
KJU1 111856Z 21000KT 34/17 A3008 RMK A01 T03360169  RH  037%=      5-min Rain = 0
KJU1 111857Z 17007G12KT 34/17 A3008 RMK A01 T03390172  RH  037%=      5-min Rain = 0
KJU1 111858Z 17011KT 34/17 A3008 RMK A01 T03440167  RH  035%=      5-min Rain = 0
KJU1 111859Z 18011KT 35/17 A3008 RMK A01 T03450165  RH  034%=      5-min Rain = 0
KJU1 111900Z 18008KT 34/17 A3008 RMK A01 T03430168  RH  035%=      5-min Rain = 0
KJU1 111901Z 17006KT 34/17 A3008 RMK A01 T03430170  RH  036%=      5-min Rain = 0
KJU1 111902Z 18005KT 34/17 A3008 RMK A01 T03440170  RH  035%=      5-min Rain = 0
KJU1 111903Z 19006KT 34/17 A3007 RMK A01 T03420172  RH  036%=      5-min Rain = 0
KJU1 111904Z 18005KT 34/17 A3007 RMK A01 T03420174  RH  037%=      5-min Rain = 0
KJU1 111905Z 18006KT 34/17 A3007 RMK A01 T03410171  RH  036%=      5-min Rain = 0
KJU1 111906Z 19004KT 34/17 A3007 RMK A01 T03390170  RH  037%=      5-min Rain = 0
KJU1 111907Z 21003G8KT 34/17 A3007 RMK A01 T03380172  RH  037%=      5-min Rain = 0
KJU1 111908Z 15009KT 34/18 A3007 RMK A01 T03420175  RH  037%=      5-min Rain = 0
KJU1 111909Z 15008KT 35/17 A3007 RMK A01 T03480172  RH  035%=      5-min Rain = 0
KJU1 111910Z 18009KT 35/17 A3007 RMK A01 T03450169  RH  035%=      5-min Rain = 0
KJU1 111911Z 20011KT 34/17 A3007 RMK A01 T03400166  RH  035%=      5-min Rain = 0
KJU1 111912Z 20009G15KT 34/17 A3007 RMK A01 T03370166  RH  036%=      5-min Rain = 0
KJU1 111913Z 20011G16KT 34/17 A3007 RMK A01 T03350166  RH  036%=      5-min Rain = 0
KJU1 111914Z 20010KT 34/17 A3007 RMK A01 T03360168  RH  037%=      5-min Rain = 0
KJU1 111915Z 18010G17KT 34/17 A3007 RMK A01 T03400169  RH  036%=      5-min Rain = 0
KJU1 111916Z 19005G10KT 34/17 A3007 RMK A01 T03390168  RH  036%=      5-min Rain = 0
KJU1 111917Z 17011KT 34/17 A3006 RMK A01 T03390169  RH  036%=      5-min Rain = 0
KJU1 111918Z 17012KT 34/17 A3006 RMK A01 T03410171  RH  036%=      5-min Rain = 0
KJU1 111919Z 17009KT 34/17 A3007 RMK A01 T03420171  RH  036%=      5-min Rain = 0
KJU1 111920Z 17003KT 34/17 A3007 RMK A01 T03430171  RH  036%=      5-min Rain = 0
KJU1 111921Z 20003KT 35/17 A3006 RMK A01 T03450170  RH  035%=      5-min Rain = 0
KJU1 111922Z 19003G8KT 34/17 A3006 RMK A01 T03440170  RH  036%=      5-min Rain = 0
KJU1 111923Z 17006KT 34/17 A3006 RMK A01 T03440170  RH  036%=      5-min Rain = 0
KJU1 111924Z 20004KT 34/17 A3006 RMK A01 T03430168  RH  035%=      5-min Rain = 0
KJU1 111925Z 20007KT 34/17 A3006 RMK A01 T03420169  RH  036%=      5-min Rain = 0
KJU1 111926Z 18009KT 34/17 A3006 RMK A01 T03430167  RH  035%=      5-min Rain = 0
KJU1 111927Z 15010G15KT 34/17 A3006 RMK A01 T03440167  RH  035%=      5-min Rain = 0
KJU1 111928Z 16011KT 34/17 A3006 RMK A01 T03440167  RH  035%=      5-min Rain = 0
KJU1 111929Z 17011KT 34/17 A3006 RMK A01 T03440167  RH  035%=      5-min Rain = 0
KJU1 111930Z 16009G15KT 35/17 A3006 RMK A01 T03460167  RH  035%=      5-min Rain = 0
KJU1 111931Z 19007KT 35/17 A3006 RMK A01 T03470166  RH  034%=      5-min Rain = 0
KJU1 111932Z 19006KT 35/17 A3006 RMK A01 T03470167  RH  034%=      5-min Rain = 0
KJU1 111933Z 17011KT 35/17 A3006 RMK A01 T03470166  RH  034%=      5-min Rain = 0
KJU1 111934Z 18007KT 35/17 A3006 RMK A01 T03460168  RH  035%=      5-min Rain = 0
KJU1 111935Z 18005KT 35/17 A3006 RMK A01 T03450166  RH  034%=      5-min Rain = 0
KJU1 111936Z 11008KT 35/17 A3006 RMK A01 T03480169  RH  035%=      5-min Rain = 0
KJU1 111937Z 09008KT 35/17 A3006 RMK A01 T03490169  RH  035%=      5-min Rain = 0
KJU1 111938Z 11006G11KT 35/17 A3005 RMK A01 T03480170  RH  035%=      5-min Rain = 0
KJU1 111939Z 16007KT 35/17 A3005 RMK A01 T03500169  RH  034%=      5-min Rain = 0
KJU1 111940Z 18007KT 35/17 A3005 RMK A01 T03520168  RH  033%=      5-min Rain = 0
KJU1 111941Z 19006KT 35/17 A3005 RMK A01 T03510165  RH  033%=      5-min Rain = 0
KJU1 111942Z 21009KT 35/17 A3005 RMK A01 T03480166  RH  034%=      5-min Rain = 0
KJU1 111943Z 20009KT 35/17 A3005 RMK A01 T03470166  RH  034%=      5-min Rain = 0
KJU1 111944Z 20008KT 34/17 A3005 RMK A01 T03440166  RH  035%=      5-min Rain = 0
KJU1 111945Z 17011KT 34/16 A3005 RMK A01 T03420163  RH  035%=      5-min Rain = 0
KJU1 111946Z 13009KT 34/16 A3005 RMK A01 T03400161  RH  034%=      5-min Rain = 0
KJU1 111947Z 12006KT 34/16 A3005 RMK A01 T03380161  RH  035%=      5-min Rain = 0
KJU1 111948Z 15004KT 34/16 A3005 RMK A01 T03370161  RH  035%=      5-min Rain = 0
KJU1 111949Z 14005KT 34/16 A3005 RMK A01 T03400163  RH  035%=      5-min Rain = 0
KJU1 111950Z 17006KT 34/17 A3005 RMK A01 T03440167  RH  035%=      5-min Rain = 0
KJU1 111951Z 18007KT 35/17 A3005 RMK A01 T03470168  RH  034%=      5-min Rain = 0
KJU1 111952Z 19005KT 35/17 A3005 RMK A01 T03470167  RH  034%=      5-min Rain = 0
KJU1 111953Z 19007KT 35/17 A3005 RMK A01 T03460167  RH  035%=      5-min Rain = 0
KJU1 111954Z 17008KT 35/17 A3005 RMK A01 T03460167  RH  034%=      5-min Rain = 0
KJU1 111955Z 16008KT 35/17 A3005 RMK A01 T03450167  RH  035%=      5-min Rain = 0
KJU1 111956Z 14007KT 35/16 A3005 RMK A01 T03480161  RH  033%=      5-min Rain = 0
KJU1 111957Z 11004KT 35/16 A3005 RMK A01 T03470160  RH  033%=      5-min Rain = 0
KJU1 111958Z 16007G13KT 35/16 A3005 RMK A01 T03470161  RH  033%=      5-min Rain = 0
KJU1 111959Z 13011KT 35/16 A3005 RMK A01 T03480159  RH  033%=      5-min Rain = 0
KJU1 112000Z 13013KT 35/16 A3005 RMK A01 T03490157  RH  032%=      5-min Rain = 0
KJU1 112001Z 13012KT 35/15 A3005 RMK A01 T03490153  RH  031%=      5-min Rain = 0
KJU1 112002Z 13008G14KT 35/16 A3005 RMK A01 T03480155  RH  031%=      5-min Rain = 0
KJU1 112003Z 14006KT 35/16 A3005 RMK A01 T03480156  RH  032%=      5-min Rain = 0
KJU1 112004Z 16008KT 35/16 A3005 RMK A01 T03510155  RH  031%=      5-min Rain = 0
KJU1 112005Z 17007KT 35/16 A3004 RMK A01 T03520156  RH  031%=      5-min Rain = 0
KJU1 112006Z 14008KT 35/16 A3004 RMK A01 T03520156  RH  031%=      5-min Rain = 0
KJU1 112007Z 15007KT 35/16 A3005 RMK A01 T03520157  RH  031%=      5-min Rain = 0
KJU1 112008Z 10002KT 35/16 A3004 RMK A01 T03530155  RH  031%=      5-min Rain = 0
KJU1 112009Z 09002KT 35/16 A3004 RMK A01 T03520156  RH  031%=      5-min Rain = 0
KJU1 112010Z 17004G11KT 35/16 A3004 RMK A01 T03520159  RH  032%=      5-min Rain = 0
KJU1 112011Z 18009KT 36/16 A3004 RMK A01 T03550157  RH  031%=      5-min Rain = 0
KJU1 112012Z 19008KT 36/15 A3004 RMK A01 T03550153  RH  030%=      5-min Rain = 0
KJU1 112013Z 20010KT 35/15 A3004 RMK A01 T03530153  RH  030%=      5-min Rain = 0
KJU1 112014Z 19008KT 35/15 A3004 RMK A01 T03510154  RH  031%=      5-min Rain = 0
KJU1 112015Z 16007G15KT 35/15 A3004 RMK A01 T03500154  RH  031%=      5-min Rain = 0
KJU1 112016Z 17011KT 35/16 A3004 RMK A01 T03530155  RH  031%=      5-min Rain = 0
KJU1 112017Z 17008KT 36/16 A3004 RMK A01 T03580158  RH  030%=      5-min Rain = 0
KJU1 112018Z 17008KT 36/16 A3004 RMK A01 T03590155  RH  030%=      5-min Rain = 0
KJU1 112019Z 15009KT 36/15 A3004 RMK A01 T03560153  RH  030%=      5-min Rain = 0
KJU1 112020Z 15011KT 35/15 A3004 RMK A01 T03510150  RH  030%=      5-min Rain = 0
KJU1 112021Z 14008KT 35/15 A3004 RMK A01 T03460148  RH  031%=      5-min Rain = 0
KJU1 112022Z 15004KT 34/15 A3004 RMK A01 T03430149  RH  031%=      5-min Rain = 0
KJU1 112023Z 12005KT 34/15 A3004 RMK A01 T03420150  RH  032%=      5-min Rain = 0
KJU1 112024Z 12008KT 34/15 A3004 RMK A01 T03430151  RH  032%=      5-min Rain = 0
KJU1 112025Z 11007KT 34/15 A3004 RMK A01 T03430148  RH  031%=      5-min Rain = 0
KJU1 112026Z 08005KT 34/15 A3004 RMK A01 T03430148  RH  031%=      5-min Rain = 0
KJU1 112027Z 06004KT 35/15 A3003 RMK A01 T03450148  RH  031%=      5-min Rain = 0
KJU1 112028Z 11003KT 35/15 A3004 RMK A01 T03450152  RH  031%=      5-min Rain = 0
KJU1 112029Z 19007KT 35/15 A3004 RMK A01 T03480154  RH  031%=      5-min Rain = 0
KJU1 112030Z 17011KT 35/16 A3003 RMK A01 T03520155  RH  031%=      5-min Rain = 0
KJU1 112031Z 17010KT 35/15 A3003 RMK A01 T03530152  RH  030%=      5-min Rain = 0
KJU1 112032Z 17012KT 35/15 A3003 RMK A01 T03530154  RH  031%=      5-min Rain = 0
KJU1 112033Z 16011KT 35/15 A3003 RMK A01 T03540152  RH  030%=      5-min Rain = 0
KJU1 112034Z 16009KT 35/15 A3003 RMK A01 T03520151  RH  030%=      5-min Rain = 0
KJU1 112035Z 15006KT 35/15 A3003 RMK A01 T03510152  RH  030%=      5-min Rain = 0
KJU1 112036Z 13007KT 35/16 A3003 RMK A01 T03530155  RH  031%=      5-min Rain = 0
KJU1 112037Z 16004KT 36/15 A3003 RMK A01 T03580152  RH  029%=      5-min Rain = 0
KJU1 112038Z 16010KT 36/15 A3003 RMK A01 T03580152  RH  029%=      5-min Rain = 0
KJU1 112039Z 14007KT 36/15 A3003 RMK A01 T03560153  RH  030%=      5-min Rain = 0
KJU1 112040Z 11006KT 36/16 A3003 RMK A01 T03580156  RH  030%=      5-min Rain = 0
KJU1 112041Z 18006KT 36/16 A3003 RMK A01 T03590155  RH  030%=      5-min Rain = 0
KJU1 112042Z 16008KT 36/15 A3003 RMK A01 T03590151  RH  029%=      5-min Rain = 0
KJU1 112043Z 17007KT 36/15 A3003 RMK A01 T03570151  RH  029%=      5-min Rain = 0
KJU1 112044Z 19005KT 36/15 A3003 RMK A01 T03560152  RH  030%=      5-min Rain = 0
KJU1 112045Z 19013KT 36/15 A3003 RMK A01 T03570151  RH  029%=      5-min Rain = 0
KJU1 112046Z 20007KT 36/15 A3003 RMK A01 T03550150  RH  029%=      5-min Rain = 0
KJU1 112047Z 20007KT 35/15 A3003 RMK A01 T03530151  RH  030%=      5-min Rain = 0
KJU1 112048Z 20006KT 35/15 A3003 RMK A01 T03510152  RH  031%=      5-min Rain = 0
KJU1 112049Z 19006KT 35/15 A3002 RMK A01 T03500154  RH  031%=      5-min Rain = 0
KJU1 112050Z 19006KT 35/16 A3002 RMK A01 T03520155  RH  031%=      5-min Rain = 0
KJU1 112051Z 15007KT 35/16 A3002 RMK A01 T03540156  RH  031%=      5-min Rain = 0
KJU1 112052Z 11006KT 36/16 A3003 RMK A01 T03570155  RH  030%=      5-min Rain = 0
KJU1 112053Z 10006KT 36/15 A3002 RMK A01 T03580154  RH  030%=      5-min Rain = 0
KJU1 112054Z 16007KT 36/16 A3002 RMK A01 T03570156  RH  030%=      5-min Rain = 0
KJU1 112055Z 19006KT 36/16 A3002 RMK A01 T03590157  RH  030%=      5-min Rain = 0
KJU1 112056Z 19005KT 36/16 A3002 RMK A01 T03580157  RH  030%=      5-min Rain = 0
KJU1 112057Z 16009KT 36/16 A3002 RMK A01 T03570156  RH  030%=      5-min Rain = 0
KJU1 112058Z 19010KT 36/16 A3002 RMK A01 T03560157  RH  031%=      5-min Rain = 0
KJU1 112059Z 20010KT 36/16 A3002 RMK A01 T03580157  RH  030%=      5-min Rain = 0
KJU1 112100Z 19011KT 36/16 A3002 RMK A01 T03560156  RH  030%=      5-min Rain = 0
KJU1 112101Z 20012KT 36/16 A3002 RMK A01 T03560157  RH  031%=      5-min Rain = 0
KJU1 112102Z 20012KT 36/16 A3002 RMK A01 T03560158  RH  031%=      5-min Rain = 0
KJU1 112103Z 20010G15KT 36/16 A3002 RMK A01 T03570157  RH  030%=      5-min Rain = 0
KJU1 112104Z 22006KT 36/16 A3002 RMK A01 T03550157  RH  031%=      5-min Rain = 0
KJU1 112105Z 22004KT 36/16 A3002 RMK A01 T03550158  RH  031%=      5-min Rain = 0
KJU1 112106Z 20004G9KT 36/16 A3002 RMK A01 T03560157  RH  031%=      5-min Rain = 0
KJU1 112107Z 19009KT 36/16 A3002 RMK A01 T03560156  RH  031%=      5-min Rain = 0
KJU1 112108Z 19008KT 36/16 A3002 RMK A01 T03560156  RH  030%=      5-min Rain = 0
KJU1 112109Z 20006KT 36/16 A3002 RMK A01 T03570156  RH  030%=      5-min Rain = 0
KJU1 112110Z 16010G15KT 36/16 A3002 RMK A01 T03590156  RH  030%=      5-min Rain = 0
KJU1 112111Z 15010KT 36/15 A3002 RMK A01 T03590153  RH  029%=      5-min Rain = 0
KJU1 112112Z 15012KT 36/15 A3002 RMK A01 T03580154  RH  030%=      5-min Rain = 0
KJU1 112113Z 15010KT 36/15 A3002 RMK A01 T03570152  RH  030%=      5-min Rain = 0
KJU1 112114Z 15008KT 36/15 A3002 RMK A01 T03580151  RH  029%=      5-min Rain = 0
KJU1 112115Z 15008KT 36/15 A3002 RMK A01 T03600150  RH  029%=      5-min Rain = 0
KJU1 112116Z 17007KT 36/15 A3002 RMK A01 T03590149  RH  029%=      5-min Rain = 0
KJU1 112117Z 18005KT 36/15 A3002 RMK A01 T03560145  RH  028%=      5-min Rain = 0
KJU1 112118Z 18005KT 35/15 A3002 RMK A01 T03520146  RH  029%=      5-min Rain = 0
KJU1 112119Z 16005KT 35/15 A3002 RMK A01 T03510147  RH  030%=      5-min Rain = 0
KJU1 112120Z 18003KT 35/15 A3002 RMK A01 T03520148  RH  030%=      5-min Rain = 0
KJU1 112121Z 20003KT 35/15 A3002 RMK A01 T03530149  RH  029%=      5-min Rain = 0
KJU1 112122Z 19004KT 36/15 A3001 RMK A01 T03550151  RH  030%=      5-min Rain = 0
KJU1 112123Z 15006KT 36/15 A3001 RMK A01 T03560152  RH  030%=      5-min Rain = 0
KJU1 112124Z 13003KT 35/15 A3001 RMK A01 T03540151  RH  030%=      5-min Rain = 0
KJU1 112125Z 01001KT 35/15 A3001 RMK A01 T03520151  RH  030%=      5-min Rain = 0
KJU1 112126Z 03001KT 35/15 A3001 RMK A01 T03520154  RH  031%=      5-min Rain = 0
KJU1 112127Z 07001KT 36/16 A3001 RMK A01 T03550155  RH  030%=      5-min Rain = 0
KJU1 112128Z 13004KT 36/15 A3001 RMK A01 T03570154  RH  030%=      5-min Rain = 0
KJU1 112129Z 09007KT 36/16 A3001 RMK A01 T03590158  RH  030%=      5-min Rain = 0
KJU1 112130Z 09007KT 36/16 A3001 RMK A01 T03600159  RH  030%=      5-min Rain = 0
KJU1 112131Z 12004KT 36/16 A3001 RMK A01 T03590158  RH  030%=      5-min Rain = 0
KJU1 112132Z 11005KT 36/16 A3001 RMK A01 T03590158  RH  030%=      5-min Rain = 0
KJU1 112133Z 12001KT 36/15 A3001 RMK A01 T03580154  RH  030%=      5-min Rain = 0
KJU1 112134Z 16010KT 36/16 A3001 RMK A01 T03580155  RH  030%=      5-min Rain = 0
KJU1 112135Z 17009KT 36/15 A3001 RMK A01 T03590152  RH  029%=      5-min Rain = 0
KJU1 112136Z 18007KT 36/16 A3001 RMK A01 T03570155  RH  030%=      5-min Rain = 0
KJU1 112137Z 19004KT 36/15 A3001 RMK A01 T03560153  RH  030%=      5-min Rain = 0
KJU1 112138Z 17003G8KT 36/15 A30 RMK A01 T03550151  RH  030%=      5-min Rain = 0
KJU1 112139Z 20008KT 36/15 A30 RMK A01 T03550152  RH  030%=      5-min Rain = 0
KJU1 112140Z 20009KT 36/16 A30 RMK A01 T03580155  RH  030%=      5-min Rain = 0
KJU1 112141Z 21009KT 36/15 A30 RMK A01 T03590153  RH  029%=      5-min Rain = 0
KJU1 112142Z 19010KT 36/15 A30 RMK A01 T03590154  RH  030%=      5-min Rain = 0
KJU1 112143Z 18008G13KT 36/15 A30 RMK A01 T03610154  RH  029%=      5-min Rain = 0
KJU1 112144Z 20006KT 36/15 A30 RMK A01 T03600153  RH  029%=      5-min Rain = 0
KJU1 112145Z 18012KT 36/16 A30 RMK A01 T03600155  RH  030%=      5-min Rain = 0
KJU1 112146Z 19011KT 36/15 A30 RMK A01 T03600153  RH  029%=      5-min Rain = 0
KJU1 112147Z 19011KT 36/15 A30 RMK A01 T03590152  RH  029%=      5-min Rain = 0
KJU1 112148Z 18008KT 36/15 A30 RMK A01 T03580152  RH  029%=      5-min Rain = 0
KJU1 112149Z 19007KT 36/16 A30 RMK A01 T03570155  RH  030%=      5-min Rain = 0
KJU1 112150Z 20010KT 36/16 A30 RMK A01 T03600155  RH  030%=      5-min Rain = 0
KJU1 112151Z 21010KT 36/15 A30 RMK A01 T03600151  RH  029%=      5-min Rain = 0
KJU1 112152Z 23009KT 36/15 A30 RMK A01 T03580149  RH  029%=      5-min Rain = 0
KJU1 112153Z 23007KT 35/15 A30 RMK A01 T03540147  RH  029%=      5-min Rain = 0
KJU1 112154Z 22005KT 35/15 A30 RMK A01 T03530149  RH  029%=      5-min Rain = 0
KJU1 112155Z 21006KT 35/15 A30 RMK A01 T03530149  RH  030%=      5-min Rain = 0
KJU1 112156Z 20007KT 35/15 A30 RMK A01 T03540151  RH  030%=      5-min Rain = 0
KJU1 112157Z 20006G11KT 36/15 A30 RMK A01 T03570152  RH  030%=      5-min Rain = 0
KJU1 112158Z 16009KT 36/15 A30 RMK A01 T03580151  RH  029%=      5-min Rain = 0
KJU1 112159Z 19010KT 36/15 A30 RMK A01 T03580150  RH  029%=      5-min Rain = 0
KJU1 112200Z 16011KT 36/15 A30 RMK A01 T03590151  RH  029%=      5-min Rain = 0
KJU1 112201Z 18011KT 36/15 A2999 RMK A01 T03590151  RH  029%=      5-min Rain = 0
KJU1 112202Z 20010KT 36/15 A30 RMK A01 T03600151  RH  029%=      5-min Rain = 0
KJU1 112203Z 21006KT 36/15 A30 RMK A01 T03590152  RH  029%=      5-min Rain = 0
KJU1 112204Z 18005KT 36/15 A2999 RMK A01 T03600151  RH  029%=      5-min Rain = 0
KJU1 112205Z 18008KT 36/15 A2999 RMK A01 T03600152  RH  029%=      5-min Rain = 0
KJU1 112206Z 17007KT 36/15 A2999 RMK A01 T03620153  RH  029%=      5-min Rain = 0
KJU1 112207Z 19005KT 37/16 A2999 RMK A01 T03650156  RH  029%=      5-min Rain = 0
KJU1 112208Z 20010KT 37/16 A2999 RMK A01 T03660155  RH  029%=      5-min Rain = 0
KJU1 112209Z 18008KT 36/15 A2999 RMK A01 T03640152  RH  028%=      5-min Rain = 0
KJU1 112210Z 14007KT 36/15 A2999 RMK A01 T03630153  RH  029%=      5-min Rain = 0
KJU1 112211Z 17006KT 36/15 A2999 RMK A01 T03640154  RH  029%=      5-min Rain = 0
KJU1 112212Z 19006KT 36/15 A2999 RMK A01 T03640152  RH  028%=      5-min Rain = 0
KJU1 112213Z 19008KT 36/15 A2999 RMK A01 T03630153  RH  029%=      5-min Rain = 0
KJU1 112214Z 21009KT 36/15 A2999 RMK A01 T03630151  RH  028%=      5-min Rain = 0
KJU1 112215Z 21011KT 36/15 A2999 RMK A01 T03600151  RH  029%=      5-min Rain = 0
KJU1 112216Z 21007KT 36/15 A2999 RMK A01 T03590150  RH  029%=      5-min Rain = 0
KJU1 112217Z 21007KT 36/15 A2999 RMK A01 T03580149  RH  029%=      5-min Rain = 0
KJU1 112218Z 20008KT 36/15 A2999 RMK A01 T03570149  RH  029%=      5-min Rain = 0
KJU1 112219Z 19007KT 36/15 A2999 RMK A01 T03570147  RH  029%=      5-min Rain = 0
KJU1 112220Z 19006KT 36/15 A2999 RMK A01 T03560148  RH  029%=      5-min Rain = 0
KJU1 112221Z 17005KT 36/15 A2999 RMK A01 T03570149  RH  029%=      5-min Rain = 0
KJU1 112222Z 18008KT 36/15 A2999 RMK A01 T03590151  RH  029%=      5-min Rain = 0
KJU1 112223Z 16012KT 36/15 A2999 RMK A01 T03610151  RH  029%=      5-min Rain = 0
KJU1 112224Z 15010KT 36/15 A2999 RMK A01 T03610149  RH  028%=      5-min Rain = 0
KJU1 112225Z 14010KT 36/15 A2999 RMK A01 T03570149  RH  029%=      5-min Rain = 0
KJU1 112226Z 14011KT 36/15 A2999 RMK A01 T03560149  RH  029%=      5-min Rain = 0
KJU1 112227Z 14008KT 36/15 A2999 RMK A01 T03570149  RH  029%=      5-min Rain = 0
KJU1 112228Z 17008KT 36/15 A2999 RMK A01 T03600150  RH  029%=      5-min Rain = 0
KJU1 112229Z 17009KT 36/15 A2999 RMK A01 T03610150  RH  029%=      5-min Rain = 0
KJU1 112230Z 15005KT 36/15 A2999 RMK A01 T03590149  RH  029%=      5-min Rain = 0
KJU1 112231Z 15007KT 36/15 A2999 RMK A01 T03580151  RH  029%=      5-min Rain = 0
KJU1 112232Z 16011KT 36/15 A2999 RMK A01 T03570149  RH  029%=      5-min Rain = 0
KJU1 112233Z 17009KT 36/15 A2999 RMK A01 T03570149  RH  029%=      5-min Rain = 0
KJU1 112234Z 14006KT 36/15 A2999 RMK A01 T03550150  RH  030%=      5-min Rain = 0
KJU1 112235Z 13009KT 36/15 A2999 RMK A01 T03550151  RH  030%=      5-min Rain = 0
KJU1 112236Z 11006KT 36/15 A2999 RMK A01 T03550150  RH  029%=      5-min Rain = 0
KJU1 112237Z 14006KT 35/15 A2998 RMK A01 T03540151  RH  030%=      5-min Rain = 0
KJU1 112238Z 16008KT 35/15 A2998 RMK A01 T03540152  RH  030%=      5-min Rain = 0
KJU1 112239Z 19009KT 36/16 A2998 RMK A01 T03560155  RH  030%=      5-min Rain = 0
KJU1 112240Z 18008KT 36/16 A2998 RMK A01 T03570156  RH  030%=      5-min Rain = 0
KJU1 112241Z 15007KT 35/15 A2998 RMK A01 T03530154  RH  030%=      5-min Rain = 0
KJU1 112242Z 14011KT 35/16 A2998 RMK A01 T03520156  RH  031%=      5-min Rain = 0
KJU1 112243Z 14011KT 35/16 A2999 RMK A01 T03540156  RH  031%=      5-min Rain = 0
KJU1 112244Z 14011KT 36/16 A2998 RMK A01 T03560155  RH  030%=      5-min Rain = 0
KJU1 112245Z 14009KT 36/16 A2998 RMK A01 T03550156  RH  031%=      5-min Rain = 0
KJU1 112246Z 16011KT 36/16 A2998 RMK A01 T03550155  RH  030%=      5-min Rain = 0
KJU1 112247Z 15010KT 36/16 A2998 RMK A01 T03550155  RH  030%=      5-min Rain = 0
KJU1 112248Z 13007KT 36/15 A2998 RMK A01 T03550154  RH  030%=      5-min Rain = 0
KJU1 112249Z 13008KT 35/15 A2998 RMK A01 T03530153  RH  030%=      5-min Rain = 0
KJU1 112250Z 14010KT 35/15 A2998 RMK A01 T03510153  RH  031%=      5-min Rain = 0
KJU1 112251Z 13010KT 35/15 A2998 RMK A01 T03500150  RH  030%=      5-min Rain = 0
KJU1 112252Z 11010KT 35/15 A2998 RMK A01 T03500150  RH  030%=      5-min Rain = 0
KJU1 112253Z 11008KT 35/15 A2998 RMK A01 T03510149  RH  030%=      5-min Rain = 0
KJU1 112254Z 10007KT 35/15 A2998 RMK A01 T03520148  RH  030%=      5-min Rain = 0
KJU1 112255Z 14006KT 35/15 A2998 RMK A01 T03530149  RH  030%=      5-min Rain = 0
KJU1 112256Z 16003KT 36/15 A2998 RMK A01 T03550149  RH  029%=      5-min Rain = 0
KJU1 112257Z 14003KT 36/15 A2998 RMK A01 T03570151  RH  029%=      5-min Rain = 0
KJU1 112258Z 17004KT 36/15 A2998 RMK A01 T03580153  RH  029%=      5-min Rain = 0
KJU1 112259Z 19009KT 36/16 A2998 RMK A01 T03600155  RH  030%=      5-min Rain = 0
KJU1 112300Z 19010KT 36/16 A2998 RMK A01 T03580155  RH  030%=      5-min Rain = 0
KJU1 112301Z 19009KT 36/16 A2998 RMK A01 T03550155  RH  030%=      5-min Rain = 0
KJU1 112302Z 21009KT 35/15 A2998 RMK A01 T03520153  RH  031%=      5-min Rain = 0
KJU1 112303Z 20008KT 35/16 A2998 RMK A01 T03510155  RH  031%=      5-min Rain = 0
KJU1 112304Z 19009KT 35/15 A2998 RMK A01 T03520154  RH  031%=      5-min Rain = 0
KJU1 112305Z 18009KT 35/15 A2998 RMK A01 T03530153  RH  030%=      5-min Rain = 0
KJU1 112306Z 18009KT 35/15 A2998 RMK A01 T03520153  RH  030%=      5-min Rain = 0
KJU1 112307Z 16009KT 35/15 A2998 RMK A01 T03530154  RH  031%=      5-min Rain = 0
KJU1 112308Z 15009KT 36/16 A2998 RMK A01 T03560156  RH  031%=      5-min Rain = 0
KJU1 112309Z 14008KT 36/16 A2998 RMK A01 T03560156  RH  030%=      5-min Rain = 0
KJU1 112310Z 14011KT 35/16 A2998 RMK A01 T03540156  RH  031%=      5-min Rain = 0
KJU1 112311Z 13012KT 35/16 A2998 RMK A01 T03540157  RH  031%=      5-min Rain = 0
KJU1 112312Z 13010KT 35/16 A2998 RMK A01 T03540157  RH  031%=      5-min Rain = 0
KJU1 112313Z 13009KT 35/16 A2998 RMK A01 T03520158  RH  031%=      5-min Rain = 0
KJU1 112314Z 12006KT 35/16 A2997 RMK A01 T03520157  RH  031%=      5-min Rain = 0
KJU1 112315Z 13011G18KT 35/16 A2997 RMK A01 T03520157  RH  031%=      5-min Rain = 0
KJU1 112316Z 17010KT 35/16 A2997 RMK A01 T03530155  RH  031%=      5-min Rain = 0
KJU1 112317Z 18008KT 35/15 A2997 RMK A01 T03530152  RH  030%=      5-min Rain = 0
KJU1 112318Z 17009KT 35/15 A2997 RMK A01 T03530153  RH  030%=      5-min Rain = 0
KJU1 112319Z 14004KT 35/16 A2997 RMK A01 T03520156  RH  031%=      5-min Rain = 0
KJU1 112320Z 19007G16KT 35/16 A2997 RMK A01 T03520159  RH  032%=      5-min Rain = 0
KJU1 112321Z 16013KT 35/16 A2997 RMK A01 T03530161  RH  032%=      5-min Rain = 0
KJU1 112322Z 13007KT 35/16 A2997 RMK A01 T03510161  RH  032%=      5-min Rain = 0
KJU1 112323Z 15011KT 35/16 A2997 RMK A01 T03500162  RH  033%=      5-min Rain = 0
KJU1 112324Z 15011KT 35/16 A2997 RMK A01 T03510162  RH  033%=      5-min Rain = 0
KJU1 112325Z 15007KT 35/16 A2997 RMK A01 T03510162  RH  033%=      5-min Rain = 0
KJU1 112326Z 13009KT 35/16 A2997 RMK A01 T03520162  RH  032%=      5-min Rain = 0
KJU1 112327Z 14010KT 35/16 A2997 RMK A01 T03520163  RH  032%=      5-min Rain = 0
KJU1 112328Z 16007KT 35/16 A2997 RMK A01 T03500159  RH  032%=      5-min Rain = 0
KJU1 112329Z 17007KT 35/16 A2997 RMK A01 T03470159  RH  033%=      5-min Rain = 0
KJU1 112330Z 14005KT 35/16 A2997 RMK A01 T03460161  RH  033%=      5-min Rain = 0
KJU1 112331Z 15006KT 35/16 A2997 RMK A01 T03480161  RH  033%=      5-min Rain = 0
KJU1 112332Z 15010KT 35/16 A2997 RMK A01 T03490160  RH  032%=      5-min Rain = 0
KJU1 112333Z 17009KT 35/16 A2997 RMK A01 T03500161  RH  033%=      5-min Rain = 0
KJU1 112334Z 15005KT 35/16 A2997 RMK A01 T03490161  RH  033%=      5-min Rain = 0
KJU1 112335Z 14005KT 35/16 A2997 RMK A01 T03480162  RH  033%=      5-min Rain = 0
KJU1 112336Z 18007KT 35/17 A2997 RMK A01 T03510165  RH  033%=      5-min Rain = 0
KJU1 112337Z 17007KT 35/16 A2997 RMK A01 T03530164  RH  033%=      5-min Rain = 0
KJU1 112338Z 15007KT 36/17 A2997 RMK A01 T03550165  RH  033%=      5-min Rain = 0
KJU1 112339Z 15010KT 36/16 A2997 RMK A01 T03560164  RH  032%=      5-min Rain = 0
KJU1 112340Z 15010KT 36/16 A2997 RMK A01 T03550162  RH  032%=      5-min Rain = 0
KJU1 112341Z 16009KT 35/16 A2997 RMK A01 T03520161  RH  032%=      5-min Rain = 0
KJU1 112342Z 16009KT 35/16 A2997 RMK A01 T03510161  RH  032%=      5-min Rain = 0
KJU1 112343Z 15005KT 35/16 A2997 RMK A01 T03510159  RH  032%=      5-min Rain = 0
KJU1 112344Z 15004KT 35/16 A2997 RMK A01 T03520161  RH  032%=      5-min Rain = 0
KJU1 112345Z 19007G14KT 35/17 A2997 RMK A01 T03530166  RH  033%=      5-min Rain = 0
KJU1 112346Z 17012KT 35/17 A2997 RMK A01 T03520167  RH  033%=      5-min Rain = 0
KJU1 112347Z 18010KT 35/17 A2997 RMK A01 T03510167  RH  034%=      5-min Rain = 0
KJU1 112348Z 16009KT 35/17 A2997 RMK A01 T03500167  RH  034%=      5-min Rain = 0
KJU1 112349Z 15010KT 35/17 A2997 RMK A01 T03500166  RH  034%=      5-min Rain = 0
KJU1 112350Z 16008KT 35/17 A2997 RMK A01 T03480166  RH  034%=      5-min Rain = 0
KJU1 112351Z 14010KT 35/17 A2997 RMK A01 T03480165  RH  034%=      5-min Rain = 0
KJU1 112352Z 15009KT 35/16 A2997 RMK A01 T03480163  RH  033%=      5-min Rain = 0
KJU1 112353Z 16007KT 35/16 A2997 RMK A01 T03470163  RH  033%=      5-min Rain = 0
KJU1 112354Z 17007KT 35/16 A2997 RMK A01 T03480163  RH  033%=      5-min Rain = 0
KJU1 112355Z 16009KT 35/16 A2997 RMK A01 T03500162  RH  033%=      5-min Rain = 0
KJU1 112356Z 16009KT 35/16 A2997 RMK A01 T03510163  RH  033%=      5-min Rain = 0
KJU1 112357Z 15009KT 35/16 A2997 RMK A01 T03510164  RH  033%=      5-min Rain = 0
KJU1 112358Z 17010KT 35/17 A2997 RMK A01 T03500165  RH  033%=      5-min Rain = 0
KJU1 112359Z 18010KT 35/17 A2997 RMK A01 T03470166  RH  034%=      5-min Rain = 0
KJU1 120000Z 17008KT 35/17 A2997 RMK A01 T03470165  RH  034%=      5-min Rain = 0
KJU1 120001Z 14008KT 35/17 A2997 RMK A01 T03470165  RH  034%=      5-min Rain = 0
KJU1 120002Z 15008KT 35/16 A2997 RMK A01 T03470164  RH  034%=      5-min Rain = 0
KJU1 120003Z 14008KT 35/16 A2997 RMK A01 T03460164  RH  034%=      5-min Rain = 0
KJU1 120004Z 14015G20KT 35/17 A2997 RMK A01 T03450165  RH  034%=      5-min Rain = 0
KJU1 120005Z 15012G17KT 34/17 A2998 RMK A01 T03440166  RH  035%=      5-min Rain = 0
KJU1 120006Z 15008KT 35/17 A2998 RMK A01 T03450167  RH  035%=      5-min Rain = 0
KJU1 120007Z 18009G14KT 35/17 A2998 RMK A01 T03460168  RH  035%=      5-min Rain = 0
KJU1 120008Z 18011KT 35/17 A2998 RMK A01 T03470168  RH  035%=      5-min Rain = 0
KJU1 120009Z 16012KT 35/17 A2998 RMK A01 T03450167  RH  035%=      5-min Rain = 0
KJU1 120010Z 17011KT 34/17 A2998 RMK A01 T03440167  RH  035%=      5-min Rain = 0
KJU1 120011Z 18009KT 34/17 A2998 RMK A01 T03440167  RH  035%=      5-min Rain = 0
KJU1 120012Z 16011KT 35/17 A2998 RMK A01 T03450167  RH  035%=      5-min Rain = 0
KJU1 120013Z 18009KT 34/17 A2998 RMK A01 T03440166  RH  035%=      5-min Rain = 0
KJU1 120014Z 17011KT 34/17 A2998 RMK A01 T03440168  RH  035%=      5-min Rain = 0
KJU1 120015Z 17011KT 34/17 A2998 RMK A01 T03420167  RH  035%=      5-min Rain = 0
KJU1 120016Z 18010KT 34/17 A2998 RMK A01 T03410167  RH  035%=      5-min Rain = 0
KJU1 120017Z 18010KT 34/17 A2998 RMK A01 T03410167  RH  035%=      5-min Rain = 0
KJU1 120018Z 17009KT 34/17 A2998 RMK A01 T03400165  RH  035%=      5-min Rain = 0
KJU1 120019Z 17009KT 34/17 A2998 RMK A01 T03390165  RH  036%=      5-min Rain = 0
KJU1 120020Z 15009KT 34/17 A2998 RMK A01 T03390167  RH  036%=      5-min Rain = 0
KJU1 120021Z 17011KT 34/17 A2998 RMK A01 T03390168  RH  036%=      5-min Rain = 0
KJU1 120022Z 17011KT 34/17 A2998 RMK A01 T03390168  RH  036%=      5-min Rain = 0
KJU1 120023Z 17009G14KT 34/17 A2998 RMK A01 T03390169  RH  036%=      5-min Rain = 0
KJU1 120024Z 18008G14KT 34/17 A2998 RMK A01 T03390169  RH  036%=      5-min Rain = 0
KJU1 120025Z 16010KT 34/17 A2998 RMK A01 T03400170  RH  036%=      5-min Rain = 0
KJU1 120026Z 17008KT 34/17 A2998 RMK A01 T03400169  RH  036%=      5-min Rain = 0
KJU1 120027Z 18012KT 34/17 A2998 RMK A01 T03400169  RH  036%=      5-min Rain = 0
KJU1 120028Z 18009KT 34/17 A2998 RMK A01 T03400170  RH  036%=      5-min Rain = 0
KJU1 120029Z 18009KT 34/17 A2998 RMK A01 T03390170  RH  037%=      5-min Rain = 0
KJU1 120030Z 19011KT 34/17 A2998 RMK A01 T03390169  RH  036%=      5-min Rain = 0
KJU1 120031Z 18008KT 34/17 A2998 RMK A01 T03380169  RH  036%=      5-min Rain = 0
KJU1 120032Z 18007KT 34/17 A2998 RMK A01 T03380169  RH  037%=      5-min Rain = 0
KJU1 120033Z 16007KT 34/17 A2998 RMK A01 T03390169  RH  037%=      5-min Rain = 0
KJU1 120034Z 17008G15KT 34/17 A2998 RMK A01 T03390169  RH  036%=      5-min Rain = 0
KJU1 120035Z 16011KT 34/17 A2998 RMK A01 T03390169  RH  036%=      5-min Rain = 0
KJU1 120036Z 16010KT 34/17 A2998 RMK A01 T03380168  RH  036%=      5-min Rain = 0
KJU1 120037Z 17011KT 34/17 A2998 RMK A01 T03370168  RH  037%=      5-min Rain = 0
KJU1 120038Z 16010KT 34/17 A2998 RMK A01 T03360168  RH  037%=      5-min Rain = 0
KJU1 120039Z 17008KT 34/17 A2998 RMK A01 T03360169  RH  037%=      5-min Rain = 0
KJU1 120040Z 17009KT 34/17 A2998 RMK A01 T03360168  RH  037%=      5-min Rain = 0
KJU1 120041Z 16010KT 34/17 A2998 RMK A01 T03360167  RH  036%=      5-min Rain = 0
KJU1 120042Z 17009KT 34/17 A2998 RMK A01 T03360167  RH  036%=      5-min Rain = 0
KJU1 120043Z 16009KT 34/17 A2998 RMK A01 T03350167  RH  037%=      5-min Rain = 0
KJU1 120044Z 15009KT 34/17 A2998 RMK A01 T03350168  RH  037%=      5-min Rain = 0
KJU1 120045Z 16008KT 34/17 A2999 RMK A01 T03350169  RH  037%=      5-min Rain = 0
KJU1 120046Z 18007KT 34/17 A2999 RMK A01 T03350169  RH  037%=      5-min Rain = 0
KJU1 120047Z 18008KT 34/17 A2999 RMK A01 T03350168  RH  037%=      5-min Rain = 0
KJU1 120048Z 17007KT 34/17 A2999 RMK A01 T03350169  RH  037%=      5-min Rain = 0
KJU1 120049Z 17007KT 34/17 A2999 RMK A01 T03350170  RH  037%=      5-min Rain = 0
KJU1 120050Z 17009KT 34/17 A2999 RMK A01 T03350170  RH  037%=      5-min Rain = 0
KJU1 120051Z 19009KT 33/17 A2999 RMK A01 T03340170  RH  038%=      5-min Rain = 0
KJU1 120052Z 18012KT 33/17 A2999 RMK A01 T03330169  RH  038%=      5-min Rain = 0
KJU1 120053Z 18010KT 33/17 A2999 RMK A01 T03320169  RH  038%=      5-min Rain = 0
KJU1 120054Z 17012KT 33/17 A2999 RMK A01 T03320168  RH  038%=      5-min Rain = 0
KJU1 120055Z 16009KT 33/17 A2999 RMK A01 T03310168  RH  038%=      5-min Rain = 0
KJU1 120056Z 17012KT 33/17 A2999 RMK A01 T03310168  RH  038%=      5-min Rain = 0
KJU1 120057Z 16011KT 33/17 A2999 RMK A01 T03300168  RH  038%=      5-min Rain = 0
KJU1 120058Z 16009KT 33/17 A2999 RMK A01 T03300168  RH  038%=      5-min Rain = 0
KJU1 120059Z 15010KT 33/17 A2999 RMK A01 T03300168  RH  038%=      5-min Rain = 0
KJU1 120100Z 17009KT 33/17 A2999 RMK A01 T03300168  RH  038%=      5-min Rain = 0
KJU1 120101Z 16009KT 33/17 A2999 RMK A01 T03300168  RH  038%=      5-min Rain = 0
KJU1 120102Z 17008KT 33/17 A2999 RMK A01 T03300168  RH  038%=      5-min Rain = 0
KJU1 120103Z 16010KT 33/17 A2999 RMK A01 T03300168  RH  038%=      5-min Rain = 0
KJU1 120104Z 15010KT 33/17 A2999 RMK A01 T03290167  RH  038%=      5-min Rain = 0
KJU1 120105Z 16009KT 33/17 A2999 RMK A01 T03290167  RH  038%=      5-min Rain = 0
KJU1 120106Z 16011KT 33/17 A2999 RMK A01 T03290167  RH  038%=      5-min Rain = 0
KJU1 120107Z 15009KT 33/17 A2999 RMK A01 T03290167  RH  038%=      5-min Rain = 0
KJU1 120108Z 15008KT 33/17 A2999 RMK A01 T03280167  RH  038%=      5-min Rain = 0
KJU1 120109Z 17008KT 33/17 A2999 RMK A01 T03280167  RH  038%=      5-min Rain = 0
KJU1 120110Z 16008KT 33/17 A2999 RMK A01 T03280167  RH  038%=      5-min Rain = 0
KJU1 120111Z 17008KT 33/17 A2999 RMK A01 T03280168  RH  038%=      5-min Rain = 0
KJU1 120112Z 16008KT 33/17 A2999 RMK A01 T03270168  RH  038%=      5-min Rain = 0
KJU1 120113Z 16007KT 33/17 A2999 RMK A01 T03270167  RH  038%=      5-min Rain = 0
KJU1 120114Z 16006KT 33/17 A2999 RMK A01 T03270168  RH  039%=      5-min Rain = 0
KJU1 120115Z 16009KT 33/17 A2999 RMK A01 T03270168  RH  039%=      5-min Rain = 0
KJU1 120116Z 16009KT 33/17 A2999 RMK A01 T03260168  RH  039%=      5-min Rain = 0
KJU1 120117Z 16009KT 33/17 A2999 RMK A01 T03260168  RH  039%=      5-min Rain = 0
KJU1 120118Z 16007KT 33/17 A2999 RMK A01 T03250167  RH  039%=      5-min Rain = 0
KJU1 120119Z 16005KT 33/17 A2999 RMK A01 T03250168  RH  039%=      5-min Rain = 0
KJU1 120120Z 16008KT 33/17 A2999 RMK A01 T03250168  RH  039%=      5-min Rain = 0
KJU1 120121Z 16008KT 33/17 A2999 RMK A01 T03250167  RH  039%=      5-min Rain = 0
KJU1 120122Z 17009KT 32/17 A2999 RMK A01 T03240167  RH  039%=      5-min Rain = 0
KJU1 120123Z 15008KT 32/17 A2999 RMK A01 T03240167  RH  039%=      5-min Rain = 0
KJU1 120124Z 16008G13KT 32/17 A2999 RMK A01 T03240167  RH  039%=      5-min Rain = 0
KJU1 120125Z 16009KT 32/17 A2999 RMK A01 T03230167  RH  039%=      5-min Rain = 0
KJU1 120126Z 16010KT 32/17 A2999 RMK A01 T03230167  RH  039%=      5-min Rain = 0
KJU1 120127Z 15008KT 32/17 A2999 RMK A01 T03220166  RH  039%=      5-min Rain = 0
KJU1 120128Z 16009KT 32/17 A2999 RMK A01 T03220166  RH  039%=      5-min Rain = 0
KJU1 120129Z 16009KT 32/17 A2999 RMK A01 T03210166  RH  039%=      5-min Rain = 0
KJU1 120130Z 16008KT 32/17 A2999 RMK A01 T03210166  RH  039%=      5-min Rain = 0
KJU1 120131Z 16009KT 32/17 A2999 RMK A01 T03200166  RH  040%=      5-min Rain = 0
KJU1 120132Z 16007KT 32/17 A2999 RMK A01 T03200166  RH  040%=      5-min Rain = 0
KJU1 120133Z 17008KT 32/17 A2999 RMK A01 T03190166  RH  040%=      5-min Rain = 0
KJU1 120134Z 16007KT 32/17 A2999 RMK A01 T03190166  RH  040%=      5-min Rain = 0
KJU1 120135Z 16007KT 32/17 A30 RMK A01 T03190166  RH  040%=      5-min Rain = 0
KJU1 120136Z 16009KT 32/17 A2999 RMK A01 T03180166  RH  040%=      5-min Rain = 0
KJU1 120137Z 16008KT 32/17 A30 RMK A01 T03180167  RH  040%=      5-min Rain = 0
KJU1 120138Z 16009KT 32/17 A30 RMK A01 T03180167  RH  040%=      5-min Rain = 0
KJU1 120139Z 16009KT 32/17 A30 RMK A01 T03180167  RH  041%=      5-min Rain = 0
KJU1 120140Z 16007KT 32/17 A30 RMK A01 T03180168  RH  041%=      5-min Rain = 0
KJU1 120141Z 17007KT 32/17 A30 RMK A01 T03170168  RH  041%=      5-min Rain = 0
KJU1 120142Z 16009KT 32/17 A30 RMK A01 T03160167  RH  041%=      5-min Rain = 0
KJU1 120143Z 15010KT 32/17 A30 RMK A01 T03160167  RH  041%=      5-min Rain = 0
KJU1 120144Z 15008KT 32/17 A30 RMK A01 T03160167  RH  041%=      5-min Rain = 0
KJU1 120145Z 15008KT 32/17 A30 RMK A01 T03160167  RH  041%=      5-min Rain = 0
KJU1 120146Z 16007KT 32/17 A30 RMK A01 T03150167  RH  041%=      5-min Rain = 0
KJU1 120147Z 15007KT 32/17 A30 RMK A01 T03150167  RH  041%=      5-min Rain = 0
KJU1 120148Z 15007KT 31/17 A30 RMK A01 T03140168  RH  041%=      5-min Rain = 0
KJU1 120149Z 16007KT 31/17 A30 RMK A01 T03140168  RH  042%=      5-min Rain = 0
KJU1 120150Z 16007KT 31/17 A30 RMK A01 T03140168  RH  042%=      5-min Rain = 0
KJU1 120151Z 15007KT 31/17 A30 RMK A01 T03130168  RH  042%=      5-min Rain = 0
KJU1 120152Z 16007KT 31/17 A30 RMK A01 T03130168  RH  042%=      5-min Rain = 0
KJU1 120153Z 15007KT 31/17 A30 RMK A01 T03130168  RH  042%=      5-min Rain = 0
KJU1 120154Z 15006KT 31/17 A30 RMK A01 T03120168  RH  042%=      5-min Rain = 0
KJU1 120155Z 16005KT 31/17 A30 RMK A01 T03120168  RH  042%=      5-min Rain = 0
KJU1 120156Z 15005KT 31/17 A30 RMK A01 T03120168  RH  042%=      5-min Rain = 0
KJU1 120157Z 15007KT 31/17 A30 RMK A01 T03110168  RH  042%=      5-min Rain = 0
KJU1 120158Z 15006KT 31/17 A30 RMK A01 T03110168  RH  042%=      5-min Rain = 0
KJU1 120159Z 15005KT 31/17 A30 RMK A01 T03110168  RH  042%=      5-min Rain = 0
KJU1 120200Z 16006KT 31/17 A30 RMK A01 T03100168  RH  043%=      5-min Rain = 0
KJU1 120201Z 16006KT 31/17 A30 RMK A01 T03100168  RH  043%=      5-min Rain = 0
KJU1 120202Z 15006KT 31/17 A30 RMK A01 T03100169  RH  043%=      5-min Rain = 0
KJU1 120203Z 16005KT 31/17 A30 RMK A01 T03100169  RH  043%=      5-min Rain = 0
KJU1 120204Z 16006KT 31/17 A30 RMK A01 T03090169  RH  043%=      5-min Rain = 0
KJU1 120205Z 16006KT 31/17 A30 RMK A01 T03090169  RH  043%=      5-min Rain = 0
KJU1 120206Z 17006KT 31/17 A30 RMK A01 T03080169  RH  043%=      5-min Rain = 0
KJU1 120207Z 16005KT 31/17 A30 RMK A01 T03080169  RH  043%=      5-min Rain = 0
KJU1 120208Z 16006KT 31/17 A30 RMK A01 T03080169  RH  043%=      5-min Rain = 0
KJU1 120209Z 16005KT 31/17 A3001 RMK A01 T03070169  RH  043%=      5-min Rain = 0
KJU1 120210Z 17005KT 31/17 A3001 RMK A01 T03070169  RH  044%=      5-min Rain = 0
KJU1 120211Z 16006KT 31/17 A3001 RMK A01 T03060169  RH  044%=      5-min Rain = 0
KJU1 120212Z 16009KT 31/17 A3001 RMK A01 T03060169  RH  044%=      5-min Rain = 0
KJU1 120213Z 15007KT 31/17 A3001 RMK A01 T03070169  RH  044%=      5-min Rain = 0
KJU1 120214Z 15007KT 31/17 A3001 RMK A01 T03070169  RH  044%=      5-min Rain = 0
KJU1 120215Z 16005KT 31/17 A3001 RMK A01 T03070169  RH  044%=      5-min Rain = 0
KJU1 120216Z 15007KT 31/17 A3001 RMK A01 T03060169  RH  044%=      5-min Rain = 0
KJU1 120217Z 15005KT 31/17 A3001 RMK A01 T03060169  RH  044%=      5-min Rain = 0
KJU1 120218Z 15007KT 31/17 A3001 RMK A01 T03050169  RH  044%=      5-min Rain = 0
KJU1 120219Z 15007KT 31/17 A3001 RMK A01 T03050169  RH  044%=      5-min Rain = 0
KJU1 120220Z 16006KT 31/17 A3001 RMK A01 T03060169  RH  044%=      5-min Rain = 0
KJU1 120221Z 16006KT 31/17 A3001 RMK A01 T03050168  RH  044%=      5-min Rain = 0
KJU1 120222Z 16008KT 31/17 A3001 RMK A01 T03060169  RH  044%=      5-min Rain = 0
KJU1 120223Z 16008KT 31/17 A3001 RMK A01 T03050168  RH  044%=      5-min Rain = 0
KJU1 120224Z 16006KT 31/17 A3001 RMK A01 T03050168  RH  044%=      5-min Rain = 0
KJU1 120225Z 15005KT 31/17 A3001 RMK A01 T03050168  RH  044%=      5-min Rain = 0
KJU1 120226Z 16005KT 30/17 A3001 RMK A01 T03040168  RH  044%=      5-min Rain = 0
KJU1 120227Z 16006KT 30/17 A3001 RMK A01 T03040168  RH  044%=      5-min Rain = 0
KJU1 120228Z 15007KT 30/17 A3001 RMK A01 T03040167  RH  044%=      5-min Rain = 0
KJU1 120229Z 16007KT 30/17 A3001 RMK A01 T03030167  RH  044%=      5-min Rain = 0
KJU1 120230Z 16005KT 30/17 A3001 RMK A01 T03030167  RH  044%=      5-min Rain = 0
KJU1 120231Z 16005KT 30/17 A3002 RMK A01 T03030167  RH  044%=      5-min Rain = 0
KJU1 120232Z 16005KT 30/17 A3002 RMK A01 T03030167  RH  044%=      5-min Rain = 0
KJU1 120233Z 15005KT 30/17 A3002 RMK A01 T03020166  RH  044%=      5-min Rain = 0
KJU1 120234Z 15006KT 30/17 A3002 RMK A01 T03020166  RH  044%=      5-min Rain = 0
KJU1 120235Z 16007KT 30/17 A3002 RMK A01 T03020166  RH  044%=      5-min Rain = 0
KJU1 120236Z 16006KT 30/17 A3002 RMK A01 T03020166  RH  044%=      5-min Rain = 0
KJU1 120237Z 16006KT 30/17 A3002 RMK A01 T03020165  RH  044%=      5-min Rain = 0
KJU1 120238Z 15006KT 30/17 A3002 RMK A01 T03020165  RH  044%=      5-min Rain = 0
KJU1 120239Z 16006KT 30/17 A3002 RMK A01 T03010165  RH  044%=      5-min Rain = 0
KJU1 120240Z 16007KT 30/17 A3002 RMK A01 T03010165  RH  044%=      5-min Rain = 0
KJU1 120241Z 16006KT 30/17 A3002 RMK A01 T03010165  RH  044%=      5-min Rain = 0
KJU1 120242Z 16006KT 30/17 A3002 RMK A01 T03010165  RH  044%=      5-min Rain = 0
KJU1 120243Z 16007KT 30/17 A3002 RMK A01 T03010165  RH  044%=      5-min Rain = 0
KJU1 120244Z 15007KT 30/16 A3002 RMK A01 T03000164  RH  044%=      5-min Rain = 0
KJU1 120245Z 16005KT 30/16 A3002 RMK A01 T03000164  RH  044%=      5-min Rain = 0
KJU1 120246Z 15006KT 30/17 A3002 RMK A01 T03010165  RH  044%=      5-min Rain = 0
KJU1 120247Z 15006KT 30/17 A3002 RMK A01 T03000165  RH  044%=      5-min Rain = 0
KJU1 120248Z 15007KT 30/17 A3002 RMK A01 T03000165  RH  044%=      5-min Rain = 0
KJU1 120249Z 15006KT 30/16 A3003 RMK A01 T02990164  RH  044%=      5-min Rain = 0
KJU1 120250Z 15004KT 30/17 A3003 RMK A01 T02990165  RH  044%=      5-min Rain = 0
KJU1 120251Z 15004KT 30/17 A3003 RMK A01 T02980165  RH  044%=      5-min Rain = 0
KJU1 120252Z 15005KT 30/16 A3003 RMK A01 T02980164  RH  045%=      5-min Rain = 0
KJU1 120253Z 15004KT 30/17 A3003 RMK A01 T02980165  RH  045%=      5-min Rain = 0
KJU1 120254Z 15005KT 30/17 A3003 RMK A01 T02970165  RH  045%=      5-min Rain = 0
KJU1 120255Z 15005KT 30/16 A3003 RMK A01 T02960164  RH  045%=      5-min Rain = 0
KJU1 120256Z 16004KT 30/17 A3003 RMK A01 T02960165  RH  045%=      5-min Rain = 0
KJU1 120257Z 15004KT 30/17 A3003 RMK A01 T02960165  RH  045%=      5-min Rain = 0
KJU1 120258Z 16005KT 30/17 A3003 RMK A01 T02960165  RH  045%=      5-min Rain = 0
KJU1 120259Z 16005KT 30/17 A3003 RMK A01 T02960165  RH  045%=      5-min Rain = 0
KJU1 120300Z 16005KT 30/17 A3003 RMK A01 T02950165  RH  045%=      5-min Rain = 0
KJU1 120301Z 16006KT 30/17 A3003 RMK A01 T02950165  RH  045%=      5-min Rain = 0
KJU1 120302Z 15006KT 30/17 A3003 RMK A01 T02950165  RH  045%=      5-min Rain = 0
KJU1 120303Z 15006KT 30/16 A3003 RMK A01 T02960164  RH  045%=      5-min Rain = 0
KJU1 120304Z 16006KT 30/17 A3003 RMK A01 T02960165  RH  045%=      5-min Rain = 0
KJU1 120305Z 16006KT 30/17 A3003 RMK A01 T02960165  RH  045%=      5-min Rain = 0
KJU1 120306Z 15005KT 30/17 A3003 RMK A01 T02960165  RH  045%=      5-min Rain = 0
KJU1 120307Z 16006KT 30/17 A3003 RMK A01 T02950165  RH  045%=      5-min Rain = 0
KJU1 120308Z 16006KT 30/17 A3003 RMK A01 T02950165  RH  045%=      5-min Rain = 0
KJU1 120309Z 15005KT 30/17 A3003 RMK A01 T02950165  RH  046%=      5-min Rain = 0
KJU1 120310Z 15006KT 29/17 A3004 RMK A01 T02940165  RH  046%=      5-min Rain = 0
KJU1 120311Z 16005KT 29/17 A3004 RMK A01 T02940165  RH  046%=      5-min Rain = 0
KJU1 120312Z 16005KT 29/17 A3004 RMK A01 T02940165  RH  046%=      5-min Rain = 0
KJU1 120313Z 16005KT 29/17 A3004 RMK A01 T02940165  RH  046%=      5-min Rain = 0
KJU1 120314Z 15005KT 29/17 A3004 RMK A01 T02930165  RH  046%=      5-min Rain = 0
KJU1 120315Z 15005KT 29/17 A3004 RMK A01 T02930165  RH  046%=      5-min Rain = 0
KJU1 120316Z 16006KT 29/17 A3004 RMK A01 T02930165  RH  046%=      5-min Rain = 0
KJU1 120317Z 16005KT 29/17 A3004 RMK A01 T02930165  RH  046%=      5-min Rain = 0
KJU1 120318Z 16005KT 29/17 A3004 RMK A01 T02930165  RH  046%=      5-min Rain = 0
KJU1 120319Z 16005KT 29/17 A3004 RMK A01 T02930166  RH  046%=      5-min Rain = 0
KJU1 120320Z 16005KT 29/17 A3004 RMK A01 T02920166  RH  046%=      5-min Rain = 0
KJU1 120321Z 16005KT 29/17 A3004 RMK A01 T02920166  RH  046%=      5-min Rain = 0
KJU1 120322Z 16005KT 29/17 A3004 RMK A01 T02910166  RH  047%=      5-min Rain = 0
KJU1 120323Z 16005KT 29/17 A3004 RMK A01 T02910165  RH  047%=      5-min Rain = 0
KJU1 120324Z 15005KT 29/17 A3004 RMK A01 T02910166  RH  047%=      5-min Rain = 0
KJU1 120325Z 16005KT 29/17 A3004 RMK A01 T02910166  RH  047%=      5-min Rain = 0
KJU1 120326Z 15006KT 29/17 A3004 RMK A01 T02900166  RH  047%=      5-min Rain = 0
KJU1 120327Z 16004KT 29/17 A3004 RMK A01 T02900166  RH  047%=      5-min Rain = 0
KJU1 120328Z 15005KT 29/17 A3005 RMK A01 T02900166  RH  047%=      5-min Rain = 0
KJU1 120329Z 15005KT 29/17 A3005 RMK A01 T02900166  RH  047%=      5-min Rain = 0
KJU1 120330Z 15005KT 29/17 A3005 RMK A01 T02890166  RH  047%=      5-min Rain = 0
KJU1 120331Z 15005KT 29/17 A3005 RMK A01 T02890166  RH  047%=      5-min Rain = 0
KJU1 120332Z 15005KT 29/17 A3005 RMK A01 T02890167  RH  048%=      5-min Rain = 0
KJU1 120333Z 16006KT 29/17 A3005 RMK A01 T02880167  RH  048%=      5-min Rain = 0
KJU1 120334Z 15005KT 29/17 A3005 RMK A01 T02880167  RH  048%=      5-min Rain = 0
KJU1 120335Z 15006KT 29/17 A3005 RMK A01 T02880167  RH  048%=      5-min Rain = 0
KJU1 120336Z 15007KT 29/17 A3005 RMK A01 T02880167  RH  048%=      5-min Rain = 0
KJU1 120337Z 15005KT 29/17 A3005 RMK A01 T02880167  RH  048%=      5-min Rain = 0
KJU1 120338Z 15006KT 29/17 A3005 RMK A01 T02890167  RH  048%=      5-min Rain = 0
KJU1 120339Z 15006KT 29/17 A3005 RMK A01 T02890167  RH  048%=      5-min Rain = 0
KJU1 120340Z 15006KT 29/17 A3005 RMK A01 T02890168  RH  048%=      5-min Rain = 0
KJU1 120341Z 15007KT 29/17 A3005 RMK A01 T02890168  RH  048%=      5-min Rain = 0
KJU1 120342Z 15005KT 29/17 A3005 RMK A01 T02890168  RH  048%=      5-min Rain = 0
KJU1 120343Z 15006KT 29/17 A3005 RMK A01 T02880169  RH  048%=      5-min Rain = 0
KJU1 120344Z 15005KT 29/17 A3005 RMK A01 T02880169  RH  049%=      5-min Rain = 0
KJU1 120345Z 15006KT 29/17 A3005 RMK A01 T02870169  RH  049%=      5-min Rain = 0
KJU1 120346Z 14006KT 29/17 A3005 RMK A01 T02870170  RH  049%=      5-min Rain = 0
KJU1 120347Z 15006KT 29/17 A3005 RMK A01 T02860170  RH  049%=      5-min Rain = 0
KJU1 120348Z 15006KT 29/17 A3006 RMK A01 T02860170  RH  049%=      5-min Rain = 0
KJU1 120349Z 15007KT 29/17 A3006 RMK A01 T02860171  RH  050%=      5-min Rain = 0
KJU1 120350Z 15007KT 29/17 A3006 RMK A01 T02860171  RH  050%=      5-min Rain = 0
KJU1 120351Z 15006KT 29/17 A3006 RMK A01 T02860171  RH  050%=      5-min Rain = 0
KJU1 120352Z 15007KT 29/17 A3006 RMK A01 T02860172  RH  050%=      5-min Rain = 0
KJU1 120353Z 15006KT 29/17 A3006 RMK A01 T02860172  RH  050%=      5-min Rain = 0
KJU1 120354Z 14008KT 29/17 A3006 RMK A01 T02850172  RH  050%=      5-min Rain = 0
KJU1 120355Z 15007KT 29/17 A3006 RMK A01 T02850173  RH  050%=      5-min Rain = 0
KJU1 120356Z 15006KT 29/17 A3006 RMK A01 T02850173  RH  051%=      5-min Rain = 0
KJU1 120357Z 15006KT 29/17 A3006 RMK A01 T02850173  RH  051%=      5-min Rain = 0
KJU1 120358Z 14006KT 28/17 A3006 RMK A01 T02840173  RH  051%=      5-min Rain = 0
KJU1 120359Z 15008KT 28/17 A3006 RMK A01 T02840174  RH  051%=      5-min Rain = 0
KJU1 120400Z 15007KT 28/17 A3006 RMK A01 T02840174  RH  051%=      5-min Rain = 0
KJU1 120401Z 15007KT 28/18 A3006 RMK A01 T02840175  RH  051%=      5-min Rain = 0
KJU1 120402Z 15007KT 28/18 A3006 RMK A01 T02840175  RH  052%=      5-min Rain = 0
KJU1 120403Z 15008KT 28/18 A3006 RMK A01 T02840175  RH  052%=      5-min Rain = 0
KJU1 120404Z 15007KT 28/18 A3006 RMK A01 T02840176  RH  052%=      5-min Rain = 0
KJU1 120405Z 15009KT 28/18 A3006 RMK A01 T02840176  RH  052%=      5-min Rain = 0
KJU1 120406Z 15007KT 28/18 A3006 RMK A01 T02840176  RH  052%=      5-min Rain = 0
KJU1 120407Z 15006KT 28/18 A3006 RMK A01 T02840176  RH  052%=      5-min Rain = 0
KJU1 120408Z 15007KT 28/18 A3006 RMK A01 T02840177  RH  052%=      5-min Rain = 0
KJU1 120409Z 16008KT 28/18 A3006 RMK A01 T02840177  RH  052%=      5-min Rain = 0
KJU1 120410Z 15007KT 28/18 A3006 RMK A01 T02840178  RH  052%=      5-min Rain = 0
KJU1 120411Z 15006KT 28/18 A3006 RMK A01 T02840177  RH  052%=      5-min Rain = 0
KJU1 120412Z 15006KT 28/18 A3006 RMK A01 T02830177  RH  053%=      5-min Rain = 0
KJU1 120413Z 14008KT 28/18 A3006 RMK A01 T02830177  RH  053%=      5-min Rain = 0
KJU1 120414Z 15006KT 28/18 A3006 RMK A01 T02830178  RH  053%=      5-min Rain = 0
KJU1 120415Z 16006KT 28/18 A3006 RMK A01 T02830178  RH  053%=      5-min Rain = 0
KJU1 120416Z 15006G11KT 28/18 A3007 RMK A01 T02820178  RH  053%=      5-min Rain = 0
KJU1 120417Z 15007KT 28/18 A3007 RMK A01 T02820178  RH  053%=      5-min Rain = 0
KJU1 120418Z 15007KT 28/18 A3007 RMK A01 T02820178  RH  053%=      5-min Rain = 0
KJU1 120419Z 15006KT 28/18 A3007 RMK A01 T02820179  RH  053%=      5-min Rain = 0
KJU1 120420Z 15006KT 28/18 A3007 RMK A01 T02820179  RH  053%=      5-min Rain = 0
KJU1 120421Z 15007KT 28/18 A3007 RMK A01 T02810179  RH  054%=      5-min Rain = 0
KJU1 120422Z 15006KT 28/18 A3007 RMK A01 T02810179  RH  054%=      5-min Rain = 0
KJU1 120423Z 15006KT 28/18 A3007 RMK A01 T02810179  RH  054%=      5-min Rain = 0
KJU1 120424Z 14005KT 28/18 A3007 RMK A01 T02810179  RH  054%=      5-min Rain = 0
KJU1 120425Z 15006KT 28/18 A3007 RMK A01 T02810179  RH  054%=      5-min Rain = 0
KJU1 120426Z 15009KT 28/18 A3007 RMK A01 T02800179  RH  054%=      5-min Rain = 0
KJU1 120427Z 15009KT 28/18 A3007 RMK A01 T02800179  RH  054%=      5-min Rain = 0
KJU1 120428Z 15007KT 28/18 A3007 RMK A01 T02810179  RH  054%=      5-min Rain = 0
KJU1 120429Z 15010KT 28/18 A3007 RMK A01 T02810180  RH  054%=      5-min Rain = 0
KJU1 120430Z 15007KT 28/18 A3007 RMK A01 T02810179  RH  054%=      5-min Rain = 0
KJU1 120431Z 15008KT 28/18 A3007 RMK A01 T02810180  RH  054%=      5-min Rain = 0
KJU1 120432Z 15008KT 28/18 A3007 RMK A01 T02810180  RH  054%=      5-min Rain = 0
KJU1 120433Z 15009KT 28/18 A3007 RMK A01 T02810180  RH  054%=      5-min Rain = 0
KJU1 120434Z 15007KT 28/18 A3007 RMK A01 T02810180  RH  054%=      5-min Rain = 0
KJU1 120435Z 16008KT 28/18 A3007 RMK A01 T02810180  RH  054%=      5-min Rain = 0
KJU1 120436Z 15008KT 28/18 A3007 RMK A01 T02810180  RH  054%=      5-min Rain = 0
KJU1 120437Z 15007KT 28/18 A3007 RMK A01 T02810180  RH  054%=      5-min Rain = 0
KJU1 120438Z 15008KT 28/18 A3007 RMK A01 T02810181  RH  054%=      5-min Rain = 0
KJU1 120439Z 15008KT 28/18 A3007 RMK A01 T02810181  RH  055%=      5-min Rain = 0
KJU1 120440Z 15007KT 28/18 A3007 RMK A01 T02800181  RH  055%=      5-min Rain = 0
KJU1 120441Z 15006KT 28/18 A3007 RMK A01 T02800181  RH  055%=      5-min Rain = 0
KJU1 120442Z 16006KT 28/18 A3007 RMK A01 T02800181  RH  055%=      5-min Rain = 0
KJU1 120443Z 15006KT 28/18 A3007 RMK A01 T02800181  RH  055%=      5-min Rain = 0
KJU1 120444Z 15007KT 28/18 A3007 RMK A01 T02790181  RH  055%=      5-min Rain = 0
KJU1 120445Z 15006KT 28/18 A3007 RMK A01 T02790181  RH  055%=      5-min Rain = 0
KJU1 120446Z 15007KT 28/18 A3007 RMK A01 T02790181  RH  055%=      5-min Rain = 0
KJU1 120447Z 15007KT 28/18 A3007 RMK A01 T02790181  RH  055%=      5-min Rain = 0
KJU1 120448Z 15006KT 28/18 A3007 RMK A01 T02790181  RH  055%=      5-min Rain = 0
KJU1 120449Z 15007KT 28/18 A3007 RMK A01 T02780181  RH  055%=      5-min Rain = 0
KJU1 120450Z 15007KT 28/18 A3007 RMK A01 T02780181  RH  056%=      5-min Rain = 0
KJU1 120451Z 15009KT 28/18 A3007 RMK A01 T02780181  RH  056%=      5-min Rain = 0
KJU1 120452Z 16007KT 28/18 A3007 RMK A01 T02780181  RH  056%=      5-min Rain = 0
KJU1 120453Z 15007KT 28/18 A3007 RMK A01 T02780181  RH  056%=      5-min Rain = 0
KJU1 120454Z 15008KT 28/18 A3007 RMK A01 T02780181  RH  056%=      5-min Rain = 0
KJU1 120455Z 15008KT 28/18 A3007 RMK A01 T02780182  RH  056%=      5-min Rain = 0
KJU1 120456Z 15007KT 28/18 A3007 RMK A01 T02770182  RH  056%=      5-min Rain = 0
KJU1 120457Z 15007KT 28/18 A3007 RMK A01 T02770181  RH  056%=      5-min Rain = 0
KJU1 120458Z 14007KT 28/18 A3007 RMK A01 T02770182  RH  056%=      5-min Rain = 0
KJU1 120459Z 15008KT 28/18 A3007 RMK A01 T02770182  RH  056%=      5-min Rain = 0
KJU1 120500Z 16006KT 28/18 A3007 RMK A01 T02770182  RH  056%=      5-min Rain = 0

Page generated in 0.0389 seconds.